PORTS® Data Listing: 8454049 Quonset Point, RI

CO-OPS RAW PORTS DATA

************************      PRELIMINARY DATA      ************************** 

     THIS RAW DATA HAS NOT BEEN SUBJECT TO THE NATIONAL OCEAN SERVICE'S        
     QUALITY CONTROL OR QUALITY ASSURANCE PROCEDURES AND DOES NOT MEET         
     THE CRITERIA AND STANDARDS OF OFFICIAL NATIONAL OCEAN SERVICE             
     DATA.  IT IS RELEASED FOR LIMITED PUBLIC USE AS PRELIMINARY DATA TO       
     BE USED ONLY WITH APPROPRIATE CAUTION.                                    

************************      PRELIMINARY DATA      ************************** 


       CD   -   Calendar date
       T    -   Time
       TZ   -   Timezone
       PW   -   Predicted water level (feet above MLLW)
       OW   -   Observed water level (feet above MLLW)
       WS   -   Wind speed (knots)
       WD   -   Wind direction (degrees true)
       WG   -   Wind gust (knots)
       AT   -   Air temperature (degrees farenheit)
       WT   -   Water temperature (degrees farenheit)
       AP   -   Air pressure (millibars)
       SA   -   Salinty (PSU - Practical Salinity Units)
       SG   -   Specific gravity
       RH   -   Relative humidity
       AG   -   Air gap (feet)
       VI   -   Visibility (nautical miles)

       ** NOTE **
       A variable that has its data fields filled with "9"s, indicates that
       data was not collected for that sample period.
       **********


STATION NAME: Quonset Point (8454049)
****************************************************************************************************
    CD       T    TZ    PW     OW    WS   WD   WG    AT    WT    AP    SA    SG     RH    AG   VI
****************************************************************************************************
2019/09/13 06:48 EDT    3.39   3.62    7  347   10  56.1  68.0 1029.8 14.5  1.010 -99.9 -99.99 -9.99
2019/09/13 06:54 EDT    3.46   3.72    8  346   10  55.9  68.0 1030.0 14.5  1.010 -99.9 -99.99 -9.99
2019/09/13 07:00 EDT    3.53   3.78    8  341   11  55.6  68.0 1030.0 14.5  1.010 -99.9 -99.99 -9.99
2019/09/13 07:06 EDT    3.59   3.84    7  347   10  55.6  68.0 1030.1 14.5  1.010 -99.9 -99.99 -9.99
2019/09/13 07:12 EDT    3.65   3.92    8  348   11  55.6  68.0 1030.1 14.5  1.010 -99.9 -99.99 -9.99
2019/09/13 07:18 EDT    3.71   3.99    9  354   11  55.6  68.0 1030.3 14.5  1.010 -99.9 -99.99 -9.99
2019/09/13 07:24 EDT    3.75   3.99    9  358   13  55.8  67.8 1030.4 14.5  1.010 -99.9 -99.99 -9.99
2019/09/13 07:30 EDT    3.80   4.04   11    6   13  55.6  67.8 1030.4 14.5  1.010 -99.9 -99.99 -9.99
2019/09/13 07:36 EDT    3.84   4.10   10    7   14  56.5  67.8 1030.5 14.5  1.010 -99.9 -99.99 -9.99
2019/09/13 07:42 EDT    3.87   4.10   12   20   15  57.0  67.8 1030.7 14.6  1.010 -99.9 -99.99 -9.99
2019/09/13 07:48 EDT    3.90   4.10   11   19   14  56.8  67.8 1030.7 14.6  1.010 -99.9 -99.99 -9.99
2019/09/13 07:54 EDT    3.93   4.16   12   24   14  57.6  68.0 1030.9 14.6  1.010 -99.9 -99.99 -9.99
2019/09/13 08:00 EDT    3.94   4.19   13   30   14  57.2  68.0 1030.9 14.6  1.010 -99.9 -99.99 -9.99
2019/09/13 08:06 EDT    3.95   4.19   13   27   15  57.7  68.0 1031.0 14.6  1.010 -99.9 -99.99 -9.99
2019/09/13 08:12 EDT    3.96   4.19   12   20   15  57.9  68.0 1031.0 14.6  1.010 -99.9 -99.99 -9.99
2019/09/13 08:18 EDT    3.96   4.25   12   25   15  57.9  68.0 1031.1 14.6  1.010 -99.9 -99.99 -9.99
2019/09/13 08:24 EDT    3.95   4.25   12   24   16  58.1  68.0 1031.1 14.6  1.010 -99.9 -99.99 -9.99
2019/09/13 08:30 EDT    3.94   4.25   12   21   15  58.1  68.0 1031.4 14.6  1.010 -99.9 -99.99 -9.99
2019/09/13 08:36 EDT    3.92   4.25   12   29   14  58.6  68.0 1031.6 14.6  1.010 -99.9 -99.99 -9.99
2019/09/13 08:42 EDT    3.89   4.26   12   31   15  58.6  68.2 1031.6 14.6  1.010 -99.9 -99.99 -9.99
2019/09/13 08:48 EDT    3.86   4.21   12   31   14  58.5  68.2 1031.7 14.6  1.010 -99.9 -99.99 -9.99
2019/09/13 08:54 EDT    3.82   4.15   12   31   14  58.6  68.2 1031.7 14.6  1.010 -99.9 -99.99 -9.99
2019/09/13 09:00 EDT    3.78   4.13   12   32   14  59.2  68.2 1031.8 14.6  1.010 -99.9 -99.99 -9.99
2019/09/13 09:06 EDT    3.73   4.07   12   27   14  59.7  68.2 1031.9 14.6  1.010 -99.9 -99.99 -9.99
2019/09/13 09:12 EDT    3.67   4.03   13   31   15  59.9  68.2 1032.1 14.6  1.010 -99.9 -99.99 -9.99
2019/09/13 09:18 EDT    3.61   4.00   11   32   14  60.4  68.2 1032.2 14.6  1.010 -99.9 -99.99 -9.99
2019/09/13 09:24 EDT    3.54   3.93   11   37   15  60.8  68.2 1032.2 14.6  1.010 -99.9 -99.99 -9.99
2019/09/13 09:30 EDT    3.47   3.87   11   39   14  61.0  68.4 1032.2 14.5  1.010 -99.9 -99.99 -9.99
2019/09/13 09:36 EDT    3.39   3.80   13   46   15  61.7  68.2 1032.2 14.5  1.010 -99.9 -99.99 -9.99
2019/09/13 09:42 EDT    3.31   3.75   13   44   16  61.5  68.2 1032.3 14.5  1.010 -99.9 -99.99 -9.99
2019/09/13 09:48 EDT    3.22   3.69   12   45   15  61.7  68.2 1032.3 14.5  1.010 -99.9 -99.99 -9.99
2019/09/13 09:54 EDT    3.13   3.61   12   44   14  61.9  68.2 1032.4 14.5  1.010 -99.9 -99.99 -9.99
2019/09/13 10:00 EDT    3.03   3.55   12   49   14  62.2  68.2 1032.5 14.5  1.010 -99.9 -99.99 -9.99
2019/09/13 10:06 EDT    2.93   3.47   12   47   15  62.2  68.4 1032.5 14.5  1.010 -99.9 -99.99 -9.99
2019/09/13 10:12 EDT    2.82   3.36   12   48   15  62.6  68.4 1032.5 14.5  1.010 -99.9 -99.99 -9.99
2019/09/13 10:18 EDT    2.72   3.25   13   52   16  62.6  68.4 1032.5 14.5  1.010 -99.9 -99.99 -9.99
2019/09/13 10:24 EDT    2.61   3.16   14   51   16  63.0  68.4 1032.6 14.5  1.010 -99.9 -99.99 -9.99
2019/09/13 10:30 EDT    2.49   3.07   15   46   16  63.1  68.4 1032.7 14.5  1.010 -99.9 -99.99 -9.99
2019/09/13 10:36 EDT    2.38   2.96   14   55   17  63.1  68.2 1032.7 14.5  1.010 -99.9 -99.99 -9.99
2019/09/13 10:42 EDT    2.26   2.86   12   52   16  63.5  68.2 1032.6 14.6  1.010 -99.9 -99.99 -9.99
2019/09/13 10:48 EDT    2.15   2.75   13   58   15  63.3  68.4 1032.7 14.5  1.010 -99.9 -99.99 -9.99
2019/09/13 10:54 EDT    2.03   2.62   13   43   15  63.7  68.4 1032.6 14.5  1.010 -99.9 -99.99 -9.99
2019/09/13 11:00 EDT    1.91   2.50   12   45   17  63.7  68.4 1032.7 14.5  1.010 -99.9 -99.99 -9.99
2019/09/13 11:06 EDT    1.80   2.41   11   50   14  63.9  68.4 1032.7 14.5  1.010 -99.9 -99.99 -9.99
2019/09/13 11:12 EDT    1.69   2.31   11   53   14  63.9  68.4 1032.7 14.5  1.010 -99.9 -99.99 -9.99
2019/09/13 11:18 EDT    1.57   2.18   12   64   15  64.4  68.4 1032.6 14.5  1.010 -99.9 -99.99 -9.99
2019/09/13 11:24 EDT    1.46   2.05   12   56   15  64.6  68.4 1032.6 14.5  1.010 -99.9 -99.99 -9.99
2019/09/13 11:30 EDT    1.36   1.93    8   70   12  64.2  68.4 1032.7 14.6  1.010 -99.9 -99.99 -9.99
2019/09/13 11:36 EDT    1.25   1.82   14   60   16  64.6  68.4 1032.7 14.6  1.010 -99.9 -99.99 -9.99
2019/09/13 11:42 EDT    1.15   1.70   16   58   17  64.9  68.2 1032.7 14.6  1.010 -99.9 -99.99 -9.99
2019/09/13 11:48 EDT    1.05   1.60   12   57   17  65.1  68.2 1032.6 14.6  1.010 -99.9 -99.99 -9.99
2019/09/13 11:54 EDT    0.96   1.52   13   68   17  65.1  68.2 1032.5 14.6  1.010 -99.9 -99.99 -9.99
2019/09/13 12:00 EDT    0.87   1.42   14   69   17  65.1  68.2 1032.4 14.5  1.010 -99.9 -99.99 -9.99
2019/09/13 12:06 EDT    0.79   1.27   11   65   16  65.3  68.2 1032.4 14.5  1.010 -99.9 -99.99 -9.99
2019/09/13 12:12 EDT    0.71   1.16   15   46   16  65.1  68.2 1032.3 14.4  1.010 -99.9 -99.99 -9.99
2019/09/13 12:18 EDT    0.64   1.08   15   45   17  65.1  68.2 1032.3 14.5  1.010 -99.9 -99.99 -9.99
2019/09/13 12:24 EDT    0.58   0.99   15   56   17  65.1  68.2 1032.3 14.5  1.010 -99.9 -99.99 -9.99
2019/09/13 12:30 EDT    0.52   0.91   13   57   17  65.1  68.2 1032.5 14.4  1.010 -99.9 -99.99 -9.99
2019/09/13 12:36 EDT    0.46   0.83   11   50   15  65.5  68.2 1032.4 14.4  1.010 -99.9 -99.99 -9.99
2019/09/13 12:42 EDT    0.41   0.77   12   41   17  65.3  68.2 1032.4 14.4  1.010 -99.9 -99.99 -9.99
2019/09/13 12:48 EDT    0.37   0.70   13   45   18  65.5  68.4 1032.4 14.4  1.010 -99.9 -99.99 -9.99
2019/09/13 12:54 EDT    0.33   0.64   13   44   15  65.7  68.4 1032.3 14.4  1.010 -99.9 -99.99 -9.99
2019/09/13 13:00 EDT    0.30   0.58   11   45   16  65.5  68.4 1032.3 14.4  1.010 -99.9 -99.99 -9.99
2019/09/13 13:06 EDT    0.28   0.55   13   52   17  65.3  68.4 1032.4 14.4  1.010 -99.9 -99.99 -9.99
2019/09/13 13:12 EDT    0.26   0.49   12   43   13  65.5  68.5 1032.4 14.4  1.010 -99.9 -99.99 -9.99
2019/09/13 13:18 EDT    0.25   0.47   14   52   15  65.5  68.4 1032.4 14.5  1.010 -99.9 -99.99 -9.99
2019/09/13 13:24 EDT    0.24   0.44   13   46   15  65.5  68.5 1032.5 14.4  1.010 -99.9 -99.99 -9.99
2019/09/13 13:30 EDT    0.23   0.44   12   39   15  65.7  68.5 1032.4 14.4  1.010 -99.9 -99.99 -9.99
2019/09/13 13:36 EDT    0.23   0.46   12   37   15  65.7  68.5 1032.4 14.4  1.010 -99.9 -99.99 -9.99
2019/09/13 13:42 EDT    0.24   0.47   12   52   15  65.7  68.5 1032.5 14.4  1.010 -99.9 -99.99 -9.99
2019/09/13 13:48 EDT    0.25   0.49    8   39   13  65.7  68.5 1032.5 14.4  1.010 -99.9 -99.99 -9.99
2019/09/13 13:54 EDT    0.26   0.50   10   46   12  65.7  68.5 1032.4 14.4  1.010 -99.9 -99.99 -9.99
2019/09/13 14:00 EDT    0.28   0.52   10   52   14  65.8  68.5 1032.4 14.4  1.010 -99.9 -99.99 -9.99
2019/09/13 14:06 EDT    0.30   0.54   10   58   12  65.7  68.7 1032.4 14.4  1.010 -99.9 -99.99 -9.99
2019/09/13 14:12 EDT    0.33   0.55   12   41   14  65.7  68.7 1032.4 14.4  1.010 -99.9 -99.99 -9.99
2019/09/13 14:18 EDT    0.35   0.58   10   55   14  65.7  68.7 1032.4 14.4  1.010 -99.9 -99.99 -9.99
2019/09/13 14:24 EDT    0.38   0.64   12   45   15  65.7  68.7 1032.5 14.4  1.010 -99.9 -99.99 -9.99
2019/09/13 14:30 EDT    0.41   0.68   12   45   13  65.7  68.7 1032.5 14.4  1.010 -99.9 -99.99 -9.99
2019/09/13 14:36 EDT    0.45   0.70   12   41   14  65.7  68.7 1032.5 14.4  1.010 -99.9 -99.99 -9.99
2019/09/13 14:42 EDT    0.48   0.74   12   44   13  65.5  68.9 1032.5 14.4  1.010 -99.9 -99.99 -9.99
2019/09/13 14:48 EDT    0.52   0.77   11   43   14  65.7  68.9 1032.4 14.4  1.010 -99.9 -99.99 -9.99
2019/09/13 14:54 EDT    0.56   0.82   12   47   13  65.7  68.9 1032.4 14.4  1.010 -99.9 -99.99 -9.99
2019/09/13 15:00 EDT    0.60   0.86   11   52   13  65.7  68.9 1032.4 14.4  1.010 -99.9 -99.99 -9.99
2019/09/13 15:06 EDT    0.65   0.89   12   52   13  65.5  68.9 1032.4 14.4  1.010 -99.9 -99.99 -9.99
2019/09/13 15:12 EDT    0.69   0.95   12   52   14  65.7  68.9 1032.4 14.4  1.010 -99.9 -99.99 -9.99
2019/09/13 15:18 EDT    0.74   0.98   11   43   13  65.7  68.9 1032.4 14.4  1.010 -99.9 -99.99 -9.99
2019/09/13 15:24 EDT    0.79   1.04   10   51   13  65.7  68.9 1032.4 14.4  1.010 -99.9 -99.99 -9.99
2019/09/13 15:30 EDT    0.83   1.08   11   51   13  65.7  68.9 1032.4 14.4  1.010 -99.9 -99.99 -9.99
2019/09/13 15:36 EDT    0.88   1.15   11   57   12  65.5  68.9 1032.4 14.4  1.010 -99.9 -99.99 -9.99
2019/09/13 15:42 EDT    0.94   1.21    9   42   14  65.7  68.9 1032.4 14.4  1.010 -99.9 -99.99 -9.99
2019/09/13 15:48 EDT    0.99   1.25   11   55   13  65.7  68.9 1032.3 14.4  1.010 -99.9 -99.99 -9.99
2019/09/13 15:54 EDT    1.05   1.32   11   49   13  65.7  68.7 1032.3 14.4  1.010 -99.9 -99.99 -9.99
2019/09/13 16:00 EDT    1.10   1.42    9   38   11  65.5  68.9 1032.3 14.4  1.010 -99.9 -99.99 -9.99
2019/09/13 16:06 EDT    1.16   1.48    9   49   12  65.7  68.9 1032.3 14.4  1.010 -99.9 -99.99 -9.99
2019/09/13 16:12 EDT    1.22   1.54   11   53   12  65.5  68.9 1032.3 14.4  1.010 -99.9 -99.99 -9.99
2019/09/13 16:18 EDT    1.28   1.59   10   41   11  65.7  68.9 1032.4 14.4  1.010 -99.9 -99.99 -9.99
2019/09/13 16:24 EDT    1.35   1.66   11   42   12  65.7  68.9 1032.3 14.4  1.010 -99.9 -99.99 -9.99
2019/09/13 16:30 EDT    1.41   1.72   10   58   12  65.8  68.9 1032.2 14.4  1.010 -99.9 -99.99 -9.99
2019/09/13 16:36 EDT    1.48   1.79    9   55   13  65.7  68.9 1032.4 14.4  1.010 -99.9 -99.99 -9.99
2019/09/13 16:42 EDT    1.55   1.87   11   43   12  65.5  68.7 1032.4 14.4  1.010 -99.9 -99.99 -9.99
2019/09/13 16:48 EDT    1.62   1.94    9   44   12  65.7  68.9 1032.5 14.4  1.010 -99.9 -99.99 -9.99
2019/09/13 16:54 EDT    1.70   2.00   10   55   12  65.7  68.9 1032.5 14.4  1.010 -99.9 -99.99 -9.99
2019/09/13 17:00 EDT    1.77   2.07   10   47   11  65.7  68.9 1032.5 14.4  1.010 -99.9 -99.99 -9.99
2019/09/13 17:06 EDT    1.85   2.16   11   49   12  65.5  68.9 1032.6 14.4  1.010 -99.9 -99.99 -9.99
2019/09/13 17:12 EDT    1.93   2.25    9   58   13  65.5  68.9 1032.5 14.4  1.010 -99.9 -99.99 -9.99
2019/09/13 17:18 EDT    2.01   2.37   11   55   12  65.5  68.9 1032.5 14.4  1.010 -99.9 -99.99 -9.99
2019/09/13 17:24 EDT    2.09   2.45   11   54   12  65.3  68.9 1032.4 14.4  1.010 -99.9 -99.99 -9.99
2019/09/13 17:30 EDT    2.18   2.54   13   48   14  65.3  68.9 1032.4 14.4  1.010 -99.9 -99.99 -9.99
2019/09/13 17:36 EDT    2.26   2.62   11   51   15  65.1  68.9 1032.5 14.4  1.010 -99.9 -99.99 -9.99
2019/09/13 17:42 EDT    2.35   2.67    9   97   12  65.3  68.9 1032.5 14.4  1.010 -99.9 -99.99 -9.99
2019/09/13 17:48 EDT    2.44   2.75   11   90   14  64.9  68.9 1032.4 14.4  1.010 -99.9 -99.99 -9.99
2019/09/13 17:54 EDT    2.53   2.85   11   92   14  65.1  68.9 1032.4 14.4  1.010 -99.9 -99.99 -9.99
2019/09/13 18:00 EDT    2.61   2.92   12  101   13  64.6  68.9 1032.3 14.4  1.010 -99.9 -99.99 -9.99
2019/09/13 18:06 EDT    2.70   2.98   13  102   15  64.2  68.9 1032.2 14.4  1.010 -99.9 -99.99 -9.99
2019/09/13 18:12 EDT    2.79   3.06   12   98   15  64.2  68.9 1032.2 14.4  1.010 -99.9 -99.99 -9.99
2019/09/13 18:18 EDT    2.88   3.14   13  105   15  63.9  68.9 1032.1 14.4  1.010 -99.9 -99.99 -9.99
2019/09/13 18:24 EDT    2.96   3.22   14  104   15  63.7  68.9 1032.1 14.4  1.010 -99.9 -99.99 -9.99
2019/09/13 18:30 EDT    3.05   3.29   13  104   16  63.7  68.9 1032.0 14.4  1.010 -99.9 -99.99 -9.99
2019/09/13 18:36 EDT    3.13   3.39   14   96   16  63.5  68.9 1032.1 14.4  1.010 -99.9 -99.99 -9.99
2019/09/13 18:42 EDT    3.21   3.48   13   94   16  63.3  68.9 1032.1 14.4  1.010 -99.9 -99.99 -9.99
2019/09/13 18:48 EDT    3.29   3.54   13   91   15  63.0  68.9 1032.0 14.4  1.010 -99.9 -99.99 -9.99
2019/09/13 18:54 EDT    3.37   3.63   11   93   15  63.1  68.9 1032.1 14.4  1.010 -99.9 -99.99 -9.99
2019/09/13 19:00 EDT    3.44   3.71   12  100   14  63.0  68.9 1032.0 14.4  1.010 -99.9 -99.99 -9.99
2019/09/13 19:06 EDT    3.51   3.76   12   90   15  62.6  68.9 1032.0 14.3  1.010 -99.9 -99.99 -9.99
2019/09/13 19:12 EDT    3.58   3.83   12   96   14  62.6  68.9 1031.9 14.3  1.010 -99.9 -99.99 -9.99
2019/09/13 19:18 EDT    3.64   3.88   12   94   14  62.4  68.9 1031.8 14.3  1.010 -99.9 -99.99 -9.99
2019/09/13 19:24 EDT    3.70   3.94   12   93   15  62.1  68.9 1031.7 14.4  1.010 -99.9 -99.99 -9.99
2019/09/13 19:30 EDT    3.76   3.99   12   83   14  61.9  68.9 1031.7 14.4  1.010 -99.9 -99.99 -9.99
2019/09/13 19:36 EDT    3.81   4.08   11   82   14  61.9  68.7 1031.7 14.4  1.010 -99.9 -99.99 -9.99
2019/09/13 19:42 EDT    3.86   4.15   13   88   15  61.7  68.7 1031.6 14.4  1.010 -99.9 -99.99 -9.99
2019/09/13 19:48 EDT    3.90   4.18   12   84   14  61.5  68.7 1031.7 14.4  1.010 -99.9 -99.99 -9.99
2019/09/13 19:54 EDT    3.93   4.23   12   88   15  61.5  68.7 1031.7 14.4  1.010 -99.9 -99.99 -9.99
2019/09/13 20:00 EDT    3.97   4.25   12   82   14  61.2  68.7 1031.7 14.4  1.010 -99.9 -99.99 -9.99
2019/09/13 20:06 EDT    3.99   4.27   12   84   14  61.0  68.7 1031.7 14.5  1.010 -99.9 -99.99 -9.99
2019/09/13 20:12 EDT    4.01   4.28   11   79   13  61.0  68.7 1031.8 14.4  1.010 -99.9 -99.99 -9.99
2019/09/13 20:18 EDT    4.03   4.30   12   79   13  60.6  68.7 1031.9 14.5  1.010 -99.9 -99.99 -9.99
2019/09/13 20:24 EDT    4.04   4.33   10   78   12  60.6  68.7 1032.0 14.5  1.010 -99.9 -99.99 -9.99
2019/09/13 20:30 EDT    4.04   4.32   11   71   12  60.6  68.7 1032.0 14.5  1.010 -99.9 -99.99 -9.99
2019/09/13 20:36 EDT    4.04   4.34   11   75   12  60.6  68.7 1032.0 14.4  1.010 -99.9 -99.99 -9.99
2019/09/13 20:42 EDT    4.03   4.35   10   73   13  60.4  68.7 1032.1 14.4  1.010 -99.9 -99.99 -9.99
2019/09/13 20:48 EDT    4.01   4.36   10   77   14  60.4  68.7 1032.0 14.4  1.010 -99.9 -99.99 -9.99
2019/09/13 20:54 EDT    3.99   4.33   11   71   14  60.4  68.7 1032.0 14.4  1.010 -99.9 -99.99 -9.99
2019/09/13 21:00 EDT    3.97   4.33    9   73   12  60.3  68.7 1032.1 14.4  1.010 -99.9 -99.99 -9.99
2019/09/13 21:06 EDT    3.93   4.30   11   72   12  60.1  68.7 1032.1 14.5  1.010 -99.9 -99.99 -9.99
2019/09/13 21:12 EDT    3.89   4.26   10   81   12  60.3  68.7 1032.1 14.4  1.010 -99.9 -99.99 -9.99
2019/09/13 21:18 EDT    3.85   4.24    9   88   11  60.1  68.7 1032.2 14.4  1.010 -99.9 -99.99 -9.99
2019/09/13 21:24 EDT    3.80   4.20    9   87   11  59.7  68.7 1032.2 14.4  1.010 -99.9 -99.99 -9.99
2019/09/13 21:30 EDT    3.74   4.17    9   76   10  59.5  68.7 1032.2 14.3  1.010 -99.9 -99.99 -9.99
2019/09/13 21:36 EDT    3.68   4.11    7   83   10  59.7  68.7 1032.3 14.3  1.010 -99.9 -99.99 -9.99
2019/09/13 21:42 EDT    3.61   4.03    8   83   11  59.5  68.5 1032.1 14.3  1.010 -99.9 -99.99 -9.99
2019/09/13 21:48 EDT    3.54   3.95    8   86   10  59.5  68.5 1032.2 14.3  1.010 -99.9 -99.99 -9.99
2019/09/13 21:54 EDT    3.46   3.87    7   83   10  59.5  68.5 1032.2 14.4  1.010 -99.9 -99.99 -9.99
2019/09/13 22:00 EDT    3.37   3.82    8   99    9  59.2  68.5 1032.3 14.4  1.010 -99.9 -99.99 -9.99
2019/09/13 22:06 EDT    3.28   3.73    7   97    9  59.2  68.5 1032.4 14.4  1.010 -99.9 -99.99 -9.99
2019/09/13 22:12 EDT    3.19   3.64    6   93    8  59.4  68.5 1032.3 14.3  1.010 -99.9 -99.99 -9.99
2019/09/13 22:18 EDT    3.09   3.52    6  123    8  59.4  68.5 1032.4 14.3  1.010 -99.9 -99.99 -9.99
2019/09/13 22:24 EDT    2.99   3.44    6  116    8  59.4  68.5 1032.4 14.3  1.010 -99.9 -99.99 -9.99
2019/09/13 22:30 EDT    2.89   3.35    5  126    7  59.2  68.5 1032.4 14.4  1.010 -99.9 -99.99 -9.99
2019/09/13 22:36 EDT    2.78   3.24    5  138    7  59.0  68.5 1032.3 14.4  1.010 -99.9 -99.99 -9.99
2019/09/13 22:42 EDT    2.67   3.15    5  137    6  59.0  68.5 1032.2 14.4  1.010 -99.9 -99.99 -9.99
2019/09/13 22:48 EDT    2.56   3.05    5  156    6  58.8  68.5 1032.2 14.4  1.010 -99.9 -99.99 -9.99
2019/09/13 22:54 EDT    2.44   2.94    4  138    5  59.2  68.5 1032.3 14.4  1.010 -99.9 -99.99 -9.99
2019/09/13 23:00 EDT    2.33   2.80    5  141    7  59.4  68.5 1032.2 14.4  1.010 -99.9 -99.99 -9.99
2019/09/13 23:06 EDT    2.21   2.70    7  135    8  59.5  68.5 1032.1 14.4  1.010 -99.9 -99.99 -9.99
2019/09/13 23:12 EDT    2.09   2.58    9  132   10  59.7  68.5 1032.0 14.4  1.010 -99.9 -99.99 -9.99
2019/09/13 23:18 EDT    1.97   2.44    8  132   10  59.5  68.5 1032.0 14.4  1.010 -99.9 -99.99 -9.99
2019/09/13 23:24 EDT    1.86   2.31    8  133   10  59.7  68.5 1032.0 14.4  1.010 -99.9 -99.99 -9.99
2019/09/13 23:30 EDT    1.74   2.22    8  130   10  59.5  68.5 1031.9 14.4  1.010 -99.9 -99.99 -9.99
2019/09/13 23:36 EDT    1.62   2.12    8  123   11  59.5  68.5 1031.8 14.4  1.010 -99.9 -99.99 -9.99
2019/09/13 23:42 EDT    1.51   2.00    9  139   10  59.9  68.5 1031.9 14.4  1.010 -99.9 -99.99 -9.99
2019/09/13 23:48 EDT    1.40   1.92    9  130   11  59.7  68.5 1031.7 14.4  1.010 -99.9 -99.99 -9.99
2019/09/13 23:54 EDT    1.29   1.80    9  126   11  59.5  68.5 1031.6 14.4  1.010 -99.9 -99.99 -9.99
2019/09/14 00:00 EDT    1.19   1.67    9  135   11  59.9  68.5 1031.6 14.4  1.010 -99.9 -99.99 -9.99
2019/09/14 00:06 EDT    1.08   1.55    8  133    9  59.5  68.5 1031.5 14.3  1.010 -99.9 -99.99 -9.99
2019/09/14 00:12 EDT    0.99   1.47    8  129   11  59.5  68.5 1031.5 14.3  1.010 -99.9 -99.99 -9.99
2019/09/14 00:18 EDT    0.89   1.37    9  138   11  59.9  68.5 1031.4 14.3  1.010 -99.9 -99.99 -9.99
2019/09/14 00:24 EDT    0.80   1.27   10  146   11  59.9  68.5 1031.5 14.3  1.010 -99.9 -99.99 -9.99
2019/09/14 00:30 EDT    0.72   1.19   13  145   14  60.1  68.7 1031.5 14.3  1.010 -99.9 -99.99 -9.99
2019/09/14 00:36 EDT    0.64   1.11   11  151   13  60.1  68.7 1031.5 14.3  1.010 -99.9 -99.99 -9.99
2019/09/14 00:42 EDT    0.57   1.02   12  148   15  60.4  68.5 1031.6 14.3  1.010 -99.9 -99.99 -9.99
2019/09/14 00:48 EDT    0.50   0.97   14  159   16  60.4  68.5 1031.7 14.3  1.010 -99.9 -99.99 -9.99
2019/09/14 00:54 EDT    0.44   0.92   12  161   15  60.1  68.5 1031.7 14.2  1.010 -99.9 -99.99 -9.99
2019/09/14 01:00 EDT    0.39   0.86   12  157   15  60.6  68.4 1031.6 14.3  1.010 -99.9 -99.99 -9.99
2019/09/14 01:06 EDT    0.34   0.82   13  155   15  60.1  68.4 1031.6 14.2  1.010 -99.9 -99.99 -9.99
2019/09/14 01:12 EDT    0.29   0.77   11  160   14  60.1  68.4 1031.5 14.2  1.010 -99.9 -99.99 -9.99
2019/09/14 01:18 EDT    0.26   0.70   13  160   15  60.3  68.4 1031.5 14.2  1.010 -99.9 -99.99 -9.99
2019/09/14 01:24 EDT    0.22   0.68   12  163   15  60.1  68.4 1031.3 14.2  1.010 -99.9 -99.99 -9.99
2019/09/14 01:30 EDT    0.20   0.67   12  155   16  60.1  68.4 1031.2 14.2  1.010 -99.9 -99.99 -9.99
2019/09/14 01:36 EDT    0.18   0.64   12  160   16  60.1  68.4 1031.0 14.2  1.010 -99.9 -99.99 -9.99
2019/09/14 01:42 EDT    0.16   0.61   11  165   14  60.1  68.4 1031.0 14.2  1.010 -99.9 -99.99 -9.99
2019/09/14 01:48 EDT    0.15   0.62   11  156   12  60.1  68.4 1030.9 14.2  1.010 -99.9 -99.99 -9.99
2019/09/14 01:54 EDT    0.15   0.61   11  157   13  60.3  68.4 1030.8 14.2  1.010 -99.9 -99.99 -9.99
2019/09/14 02:00 EDT    0.15   0.60   10  165   13  60.4  68.2 1030.8 14.3  1.010 -99.9 -99.99 -9.99
2019/09/14 02:06 EDT    0.15   0.60   10  154   11  60.3  68.2 1030.7 14.3  1.010 -99.9 -99.99 -9.99
2019/09/14 02:12 EDT    0.16   0.60    9  157   11  60.4  68.2 1030.6 14.3  1.010 -99.9 -99.99 -9.99
2019/09/14 02:18 EDT    0.17   0.63   10  156   11  60.3  68.2 1030.5 14.3  1.010 -99.9 -99.99 -9.99
2019/09/14 02:24 EDT    0.19   0.63    8  148   11  59.9  68.2 1030.4 14.3  1.010 -99.9 -99.99 -9.99
2019/09/14 02:30 EDT    0.21   0.67    8  149    9  60.4  68.2 1030.2 14.3  1.010 -99.9 -99.99 -9.99
2019/09/14 02:36 EDT    0.23   0.69    8  151    9  60.3  68.2 1030.2 14.3  1.010 -99.9 -99.99 -9.99
2019/09/14 02:42 EDT    0.26   0.73    8  149    9  60.3  68.2 1030.1 14.3  1.010 -99.9 -99.99 -9.99
2019/09/14 02:48 EDT    0.29   0.73    8  148    9  60.6  68.2 1030.0 14.3  1.010 -99.9 -99.99 -9.99
2019/09/14 02:54 EDT    0.32   0.78    9  152   11  60.4  68.2 1030.0 14.3  1.010 -99.9 -99.99 -9.99
2019/09/14 03:00 EDT    0.36   0.82    9  149   11  60.4  68.2 1029.8 14.3  1.010 -99.9 -99.99 -9.99
2019/09/14 03:06 EDT    0.39   0.86   10  148   12  60.6  68.2 1029.8 14.3  1.010 -99.9 -99.99 -9.99
2019/09/14 03:12 EDT    0.43   0.86    8  149   10  60.6  68.2 1029.8 14.3  1.010 -99.9 -99.99 -9.99
2019/09/14 03:18 EDT    0.47   0.90    8  148   10  60.8  68.2 1030.0 14.3  1.010 -99.9 -99.99 -9.99
2019/09/14 03:24 EDT    0.52   0.95    7  145    9  60.8  68.2 1029.9 14.3  1.010 -99.9 -99.99 -9.99
2019/09/14 03:30 EDT    0.56   0.99    7  146   10  61.0  68.2 1029.9 14.2  1.010 -99.9 -99.99 -9.99
2019/09/14 03:36 EDT    0.61   1.01    9  151   11  61.0  68.2 1029.9 14.3  1.010 -99.9 -99.99 -9.99
2019/09/14 03:42 EDT    0.66   1.06    7  143   10  61.2  68.2 1029.8 14.3  1.010 -99.9 -99.99 -9.99
2019/09/14 03:48 EDT    0.71   1.14    8  160   10  61.2  68.0 1029.7 14.3  1.010 -99.9 -99.99 -9.99
2019/09/14 03:54 EDT    0.76   1.19   10  158   11  61.2  68.0 1029.7 14.2  1.010 -99.9 -99.99 -9.99
2019/09/14 04:00 EDT    0.81   1.23    9  163   11  61.2  68.0 1029.6 14.2  1.010 -99.9 -99.99 -9.99
2019/09/14 04:06 EDT    0.87   1.27   11  162   12  61.2  68.0 1029.6 14.2  1.010 -99.9 -99.99 -9.99
2019/09/14 04:12 EDT    0.92   1.32   10  158   11  61.2  68.0 1029.5 14.2  1.010 -99.9 -99.99 -9.99
2019/09/14 04:18 EDT    0.98   1.37   10  155   12  61.5  68.0 1029.4 14.2  1.010 -99.9 -99.99 -9.99
2019/09/14 04:24 EDT    1.04   1.41    9  155   12  61.3  68.0 1029.4 14.2  1.010 -99.9 -99.99 -9.99
2019/09/14 04:30 EDT    1.10   1.47    9  159   12  61.3  68.0 1029.4 14.2  1.010 -99.9 -99.99 -9.99
2019/09/14 04:36 EDT    1.17   1.53   10  158   11  61.3  68.0 1029.4 14.2  1.010 -99.9 -99.99 -9.99
2019/09/14 04:42 EDT    1.24   1.61   10  159   11  61.2  68.0 1029.3 14.2  1.010 -99.9 -99.99 -9.99
2019/09/14 04:48 EDT    1.30   1.68    9  152   11  61.2  68.0 1029.2 14.2  1.010 -99.9 -99.99 -9.99
2019/09/14 04:54 EDT    1.37   1.75    9  146   11  61.3  68.0 1029.1 14.2  1.010 -99.9 -99.99 -9.99
2019/09/14 05:00 EDT    1.45   1.83    7  145   11  61.2  67.8 1029.3 14.3  1.010 -99.9 -99.99 -9.99
2019/09/14 05:06 EDT    1.52   1.89    7  148    9  61.0  67.8 1029.3 14.3  1.010 -99.9 -99.99 -9.99
2019/09/14 05:12 EDT    1.60   1.97    8  148    9  60.8  67.8 1029.4 14.3  1.010 -99.9 -99.99 -9.99
2019/09/14 05:18 EDT    1.68   2.04    7  156    9  61.0  67.8 1029.2 14.3  1.010 -99.9 -99.99 -9.99
2019/09/14 05:24 EDT    1.76   2.11    8  142   10  61.3  67.8 1029.2 14.3  1.010 -99.9 -99.99 -9.99
2019/09/14 05:30 EDT    1.84   2.20    9  143   11  61.2  67.8 1029.0 14.3  1.010 -99.9 -99.99 -9.99
2019/09/14 05:36 EDT    1.93   2.28   11  145   11  61.2  67.8 1028.9 14.3  1.010 -99.9 -99.99 -9.99
2019/09/14 05:42 EDT    2.01   2.36   10  147   12  61.2  67.8 1028.9 14.2  1.010 -99.9 -99.99 -9.99
2019/09/14 05:48 EDT    2.10   2.44   11  146   12  61.3  67.8 1028.9 14.2  1.010 -99.9 -99.99 -9.99
2019/09/14 05:54 EDT    2.19   2.54   11  150   14  61.5  67.8 1028.7 14.2  1.010 -99.9 -99.99 -9.99
2019/09/14 06:00 EDT    2.28   2.64   11  148   14  61.9  67.8 1028.7 14.2  1.010 -99.9 -99.99 -9.99
2019/09/14 06:06 EDT    2.37   2.71   10  150   13  61.5  67.8 1028.6 14.2  1.010 -99.9 -99.99 -9.99
2019/09/14 06:12 EDT    2.46   2.79    9  151   12  61.9  67.8 1028.6 14.2  1.010 -99.9 -99.99 -9.99
2019/09/14 06:18 EDT    2.55   2.87    9  153   11  61.7  67.6 1028.7 14.3  1.010 -99.9 -99.99 -9.99
2019/09/14 06:24 EDT    2.64   2.94    9  155   10  61.7  67.6 1028.7 14.3  1.010 -99.9 -99.99 -9.99
2019/09/14 06:30 EDT    2.73   3.02    7  151    9  61.9  67.6 1028.8 14.3  1.010 -99.9 -99.99 -9.99
2019/09/14 06:36 EDT    2.82   3.11    6  154    8  62.1  67.6 1028.9 14.3  1.010 -99.9 -99.99 -9.99
2019/09/14 06:42 EDT    2.91   3.21    7  170    8  62.2  67.6 1029.0 14.2  1.010 -99.9 -99.99 -9.99
2019/09/14 06:48 EDT    3.00   3.30    5  171    8  62.4  67.6 1029.1 14.2  1.010 -99.9 -99.99 -9.99
2019/09/14 06:54 EDT    3.09   3.40    5  181    6  62.8  67.6 1029.1 14.2  1.010 -99.9 -99.99 -9.99
2019/09/14 07:00 EDT    3.17   3.48    7  172    9  62.8  67.6 1028.8 14.2  1.010 -99.9 -99.99 -9.99
2019/09/14 07:06 EDT    3.25   3.56    9  160   11  63.0  67.6 1028.8 14.2  1.010 -99.9 -99.99 -9.99
2019/09/14 07:12 EDT    3.33   3.62    9  165   11  63.1  67.6 1028.7 14.2  1.010 -99.9 -99.99 -9.99
2019/09/14 07:18 EDT    3.41   3.71   10  159   11  63.1  67.6 1028.7 14.2  1.010 -99.9 -99.99 -9.99
2019/09/14 07:24 EDT    3.48   3.77    9  166   11  63.3  67.6 1028.6 14.2  1.010 -99.9 -99.99 -9.99
2019/09/14 07:30 EDT    3.55   3.84   10  163   12  63.3  67.6 1028.5 14.2  1.010 -99.9 -99.99 -9.99
2019/09/14 07:36 EDT    3.62   3.93   11  162   12  63.9  67.6 1028.5 14.2  1.010 -99.9 -99.99 -9.99
2019/09/14 07:42 EDT    3.68   3.98   10  165   12  63.9  67.6 1028.6 14.2  1.010 -99.9 -99.99 -9.99
2019/09/14 07:48 EDT    3.74   4.03    9  173   12  63.9  67.6 1028.7 14.2  1.010 -99.9 -99.99 -9.99
2019/09/14 07:54 EDT    3.79   4.09   10  166   13  64.2  67.6 1028.6 14.2  1.010 -99.9 -99.99 -9.99
2019/09/14 08:00 EDT    3.84   4.17   14  168   17  64.0  67.6 1028.4 14.2  1.010 -99.9 -99.99 -9.99
2019/09/14 08:06 EDT    3.88   4.22   12  172   15  64.4  67.6 1028.4 14.2  1.010 -99.9 -99.99 -9.99
2019/09/14 08:12 EDT    3.92   4.26   11  162   14  64.4  67.6 1028.4 14.2  1.010 -99.9 -99.99 -9.99
2019/09/14 08:18 EDT    3.95   4.31   12  160   15  64.4  67.6 1028.4 14.2  1.010 -99.9 -99.99 -9.99
2019/09/14 08:24 EDT    3.98   4.33   11  164   15  64.2  67.6 1028.4 14.2  1.010 -99.9 -99.99 -9.99
2019/09/14 08:30 EDT    4.00   4.31   13  162   15  64.2  67.6 1028.4 14.2  1.010 -99.9 -99.99 -9.99
2019/09/14 08:36 EDT    4.01   4.35   13  166   15  64.4  67.6 1028.5 14.3  1.010 -99.9 -99.99 -9.99
2019/09/14 08:42 EDT    4.02   4.38   12  165   15  64.4  67.6 1028.5 14.3  1.010 -99.9 -99.99 -9.99
2019/09/14 08:48 EDT    4.03   4.38   13  163   16  64.2  67.6 1028.4 14.3  1.010 -99.9 -99.99 -9.99
2019/09/14 08:54 EDT    4.02   4.36   13  166   16  64.6  67.6 1028.2 14.4  1.010 -99.9 -99.99 -9.99
2019/09/14 09:00 EDT    4.02   4.40   14  170   17  64.6  67.6 1028.1 14.4  1.010 -99.9 -99.99 -9.99
2019/09/14 09:06 EDT    4.00   4.38   13  168   17  64.8  67.6 1028.2 14.4  1.010 -99.9 -99.99 -9.99
2019/09/14 09:12 EDT    3.98   4.37   13  163   16  64.9  67.6 1028.2 14.4  1.010 -99.9 -99.99 -9.99
2019/09/14 09:18 EDT    3.95   4.35   13  166   15  65.1  67.6 1028.2 14.3  1.010 -99.9 -99.99 -9.99
2019/09/14 09:24 EDT    3.92   4.34   13  161   17  64.9  67.6 1028.3 14.2  1.010 -99.9 -99.99 -9.99
2019/09/14 09:30 EDT    3.88   4.30   13  162   16  65.1  67.6 1028.3 14.2  1.010 -99.9 -99.99 -9.99
2019/09/14 09:36 EDT    3.84   4.26   16  164   18  65.1  67.8 1028.2 14.2  1.010 -99.9 -99.99 -9.99
2019/09/14 09:42 EDT    3.79   4.24   14  169   17  65.5  67.8 1028.2 14.3  1.010 -99.9 -99.99 -9.99
2019/09/14 09:48 EDT    3.73   4.17   14  165   18  65.5  67.8 1028.2 14.3  1.010 -99.9 -99.99 -9.99
2019/09/14 09:54 EDT    3.67   4.12   16  171   20  65.1  67.8 1028.2 14.3  1.010 -99.9 -99.99 -9.99
2019/09/14 10:00 EDT    3.60   4.05   16  162   20  65.1  67.8 1028.2 14.3  1.010 -99.9 -99.99 -9.99
2019/09/14 10:06 EDT    3.53   4.01   16  170   19  65.5  67.8 1028.0 14.3  1.010 -99.9 -99.99 -9.99
2019/09/14 10:12 EDT    3.45   3.90   15  167   20  65.7  67.8 1028.1 14.3  1.010 -99.9 -99.99 -9.99
2019/09/14 10:18 EDT    3.37   3.83   14  167   16  65.8  67.8 1028.1 14.3  1.010 -99.9 -99.99 -9.99
2019/09/14 10:24 EDT    3.28   3.72   15  167   18  66.0  67.8 1028.0 14.2  1.010 -99.9 -99.99 -9.99
2019/09/14 10:30 EDT    3.19   3.63   16  171   19  66.2  67.8 1027.9 14.2  1.010 -99.9 -99.99 -9.99
2019/09/14 10:36 EDT    3.09   3.56   16  177   19  66.4  67.8 1027.8 14.2  1.010 -99.9 -99.99 -9.99
2019/09/14 10:42 EDT    2.99   3.49   16  180   18  66.6  67.8 1027.7 14.2  1.010 -99.9 -99.99 -9.99
2019/09/14 10:48 EDT    2.89   3.39   17  181   21  66.7  67.8 1027.5 14.2  1.010 -99.9 -99.99 -9.99
2019/09/14 10:54 EDT    2.78   3.27   17  181   24  66.9  67.8 1027.5 14.2  1.010 -99.9 -99.99 -9.99
2019/09/14 11:00 EDT    2.67   3.20   15  177   18  66.7  67.8 1027.5 14.2  1.010 -99.9 -99.99 -9.99
2019/09/14 11:06 EDT    2.56   3.07   16  181   22  67.1  67.8 1027.5 14.2  1.010 -99.9 -99.99 -9.99
2019/09/14 11:12 EDT    2.45   2.97   17  169   19  66.6  67.8 1027.5 14.2  1.010 -99.9 -99.99 -9.99
2019/09/14 11:18 EDT    2.34   2.82   17  176   20  66.7  67.8 1027.6 14.2  1.010 -99.9 -99.99 -9.99
2019/09/14 11:24 EDT    2.22   2.71   18  181   21  66.6  68.0 1027.5 14.2  1.010 -99.9 -99.99 -9.99
2019/09/14 11:30 EDT    2.10   2.60   17  185   21  66.6  68.0 1027.4 14.2  1.010 -99.9 -99.99 -9.99
2019/09/14 11:36 EDT    1.99   2.46   16  182   20  66.7  68.0 1027.3 14.2  1.010 -99.9 -99.99 -9.99
2019/09/14 11:42 EDT    1.87   2.36   18  184   20  66.6  68.0 1027.1 14.2  1.010 -99.9 -99.99 -9.99
2019/09/14 11:48 EDT    1.75   2.27   17  189   21  66.6  68.0 1027.0 14.2  1.010 -99.9 -99.99 -9.99
2019/09/14 11:54 EDT    1.64   2.12   15  179   19  66.7  68.0 1026.9 14.2  1.010 -99.9 -99.99 -9.99
2019/09/14 12:00 EDT    1.53   1.99   19  178   21  66.9  68.0 1026.8 14.2  1.010 -99.9 -99.99 -9.99
2019/09/14 12:06 EDT    1.42   1.89   17  182   20  66.9  68.0 1026.8 14.2  1.010 -99.9 -99.99 -9.99
2019/09/14 12:12 EDT    1.31   1.81   15  179   21  66.9  68.0 1026.6 14.2  1.010 -99.9 -99.99 -9.99
2019/09/14 12:18 EDT    1.21   1.68   16  179   18  67.3  67.8 1026.6 14.2  1.010 -99.9 -99.99 -9.99
2019/09/14 12:24 EDT    1.10   1.55   17  179   20  67.3  67.8 1026.5 14.2  1.010 -99.9 -99.99 -9.99
2019/09/14 12:30 EDT    1.01   1.45   17  180   21  67.5  67.8 1026.3 14.2  1.010 -99.9 -99.99 -9.99
2019/09/14 12:36 EDT    0.91   1.37   19  177   21  67.3  68.0 1026.1 14.2  1.010 -99.9 -99.99 -9.99
2019/09/14 12:42 EDT    0.83   1.26   18  178   22  67.3  68.0 1026.0 14.2  1.010 -99.9 -99.99 -9.99
2019/09/14 12:48 EDT    0.74   1.15   20  180   24  67.6  68.0 1026.0 14.2  1.010 -99.9 -99.99 -9.99
2019/09/14 12:54 EDT    0.66   1.04   18  182   23  67.6  68.0 1026.1 14.2  1.010 -99.9 -99.99 -9.99
2019/09/14 13:00 EDT    0.59   0.97   20  179   24  67.8  68.0 1026.1 14.2  1.010 -99.9 -99.99 -9.99
2019/09/14 13:06 EDT    0.52   0.88   20  184   22  67.6  68.0 1026.1 14.2  1.010 -99.9 -99.99 -9.99
2019/09/14 13:12 EDT    0.46   0.82   19  180   23  67.6  68.2 1026.0 14.2  1.010 -99.9 -99.99 -9.99
2019/09/14 13:18 EDT    0.41   0.77   16  185   21  67.6  68.2 1025.9 14.2  1.010 -99.9 -99.99 -9.99
2019/09/14 13:24 EDT    0.36   0.71   16  189   21  67.6  68.2 1025.8 14.2  1.010 -99.9 -99.99 -9.99
2019/09/14 13:30 EDT    0.31   0.60   20  185   23  68.2  68.2 1025.8 14.2  1.010 -99.9 -99.99 -9.99
2019/09/14 13:36 EDT    0.28   0.56   18  185   21  68.0  68.2 1025.7 14.2  1.010 -99.9 -99.99 -9.99
2019/09/14 13:42 EDT    0.24   0.49   18  180   23  68.0  68.2 1025.5 14.2  1.010 -99.9 -99.99 -9.99
2019/09/14 13:48 EDT    0.22   0.46   19  181   22  68.0  68.2 1025.3 14.2  1.010 -99.9 -99.99 -9.99
2019/09/14 13:54 EDT    0.20   0.41   19  182   24  68.2  68.2 1025.1 14.2  1.010 -99.9 -99.99 -9.99
2019/09/14 14:00 EDT    0.18   0.41   18  184   24  68.2  68.2 1025.2 14.2  1.010 -99.9 -99.99 -9.99
2019/09/14 14:06 EDT    0.17   0.40   18  179   23  68.2  68.2 1025.0 14.2  1.010 -99.9 -99.99 -9.99
2019/09/14 14:12 EDT    0.17   0.35   17  181   20  68.0  68.2 1025.0 14.2  1.010 -99.9 -99.99 -9.99
2019/09/14 14:18 EDT    0.17   0.36   17  184   20  68.2  68.2 1024.8 14.2  1.010 -99.9 -99.99 -9.99
2019/09/14 14:24 EDT    0.18   0.38   17  182   20  68.4  68.2 1024.8 14.2  1.010 -99.9 -99.99 -9.99
2019/09/14 14:30 EDT    0.19   0.38   17  202   20  69.6  68.2 1024.7 14.2  1.010 -99.9 -99.99 -9.99
2019/09/14 14:36 EDT    0.20   0.39   18  203   22  70.3  68.2 1024.6 14.2  1.010 -99.9 -99.99 -9.99
2019/09/14 14:42 EDT    0.22   0.42   19  208   22  70.5  68.2 1024.5 14.2  1.010 -99.9 -99.99 -9.99
2019/09/14 14:48 EDT    0.24   0.44   17  203   21  70.5  68.0 1024.5 14.2  1.010 -99.9 -99.99 -9.99
2019/09/14 14:54 EDT    0.27   0.45   17  205   20  70.5  68.0 1024.5 14.2  1.010 -99.9 -99.99 -9.99
2019/09/14 15:00 EDT    0.30   0.49   19  205   22  70.3  67.8 1024.4 14.2  1.010 -99.9 -99.99 -9.99
2019/09/14 15:06 EDT    0.33   0.50   17  209   25  70.3  67.8 1024.3 14.2  1.010 -99.9 -99.99 -9.99
2019/09/14 15:12 EDT    0.37   0.55   17  204   22  70.3  67.8 1024.2 14.2  1.010 -99.9 -99.99 -9.99
2019/09/14 15:18 EDT    0.40   0.58   18  208   21  70.3  68.0 1024.1 14.2  1.010 -99.9 -99.99 -9.99
2019/09/14 15:24 EDT    0.44   0.60   16  203   21  70.2  68.0 1023.9 14.2  1.010 -99.9 -99.99 -9.99
2019/09/14 15:30 EDT    0.49   0.63   14  197   22  69.6  67.8 1023.9 14.2  1.010 -99.9 -99.99 -9.99
2019/09/14 15:36 EDT    0.53   0.69   15  196   17  69.3  68.0 1024.0 14.2  1.010 -99.9 -99.99 -9.99
2019/09/14 15:42 EDT    0.58   0.73   15  198   21  69.1  68.0 1024.0 14.2  1.010 -99.9 -99.99 -9.99
2019/09/14 15:48 EDT    0.63   0.76   14  191   16  68.2  67.8 1023.9 14.2  1.010 -99.9 -99.99 -9.99
2019/09/14 15:54 EDT    0.68   0.79   16  185   17  68.2  68.0 1023.9 14.2  1.010 -99.9 -99.99 -9.99
2019/09/14 16:00 EDT    0.73   0.87   15  185   17  68.2  67.8 1023.8 14.2  1.010 -99.9 -99.99 -9.99
2019/09/14 16:06 EDT    0.78   0.90   15  181   18  68.4  67.8 1023.7 14.2  1.010 -99.9 -99.99 -9.99
2019/09/14 16:12 EDT    0.83   0.97   14  191   19  68.4  68.0 1023.6 14.2  1.010 -99.9 -99.99 -9.99
2019/09/14 16:18 EDT    0.89   1.04   16  194   19  68.9  67.8 1023.6 14.2  1.010 -99.9 -99.99 -9.99
2019/09/14 16:24 EDT    0.95   1.10   12  195   17  68.9  67.8 1023.5 14.2  1.010 -99.9 -99.99 -9.99
2019/09/14 16:30 EDT    1.01   1.16   13  195   16  69.1  67.8 1023.4 14.2  1.010 -99.9 -99.99 -9.99
2019/09/14 16:36 EDT    1.07   1.22   16  193   18  69.4  67.8 1023.4 14.2  1.010 -99.9 -99.99 -9.99
2019/09/14 16:42 EDT    1.13   1.29   13  192   19  69.1  67.8 1023.4 14.1  1.010 -99.9 -99.99 -9.99
2019/09/14 16:48 EDT    1.19   1.35   14  188   15  68.7  67.8 1023.3 14.1  1.010 -99.9 -99.99 -9.99
2019/09/14 16:54 EDT    1.26   1.39   14  196   17  69.1  68.0 1023.3 14.1  1.010 -99.9 -99.99 -9.99
2019/09/14 17:00 EDT    1.33   1.47   15  202   18  69.6  67.8 1023.3 14.1  1.010 -99.9 -99.99 -9.99
2019/09/14 17:06 EDT    1.40   1.57   15  201   19  69.8  67.8 1023.2 14.2  1.010 -99.9 -99.99 -9.99
2019/09/14 17:12 EDT    1.47   1.65   17  201   20  70.0  68.0 1023.1 14.1  1.010 -99.9 -99.99 -9.99
2019/09/14 17:18 EDT    1.54   1.71   15  201   17  70.0  68.0 1023.1 14.1  1.010 -99.9 -99.99 -9.99
2019/09/14 17:24 EDT    1.61   1.79   15  204   19  69.8  68.0 1023.0 14.1  1.010 -99.9 -99.99 -9.99
2019/09/14 17:30 EDT    1.69   1.90   15  199   18  70.0  68.0 1023.1 14.1  1.010 -99.9 -99.99 -9.99
2019/09/14 17:36 EDT    1.77   2.00   12  197   15  69.6  67.8 1023.0 14.1  1.010 -99.9 -99.99 -9.99
2019/09/14 17:42 EDT    1.85   2.05   12  197   14  69.4  68.0 1022.9 14.1  1.010 -99.9 -99.99 -9.99
2019/09/14 17:48 EDT    1.93   2.17   12  200   16  70.0  68.0 1022.9 14.1  1.010 -99.9 -99.99 -9.99
2019/09/14 17:54 EDT    2.01   2.26   14  203   16  70.2  68.0 1022.9 14.1  1.010 -99.9 -99.99 -9.99
2019/09/14 18:00 EDT    2.10   2.34   13  194   16  69.8  68.0 1023.0 14.1  1.010 -99.9 -99.99 -9.99
2019/09/14 18:06 EDT    2.18   2.39   12  191   14  69.3  67.8 1022.9 14.1  1.010 -99.9 -99.99 -9.99
2019/09/14 18:12 EDT    2.27   2.51   11  195   14  69.1  67.8 1022.9 14.1  1.010 -99.9 -99.99 -9.99
2019/09/14 18:18 EDT    2.36   2.58   12  204   15  69.8  68.0 1022.8 14.1  1.010 -99.9 -99.99 -9.99
2019/09/14 18:24 EDT    2.44   2.64   12  201   14  69.8  68.0 1022.8 14.1  1.010 -99.9 -99.99 -9.99
2019/09/14 18:30 EDT    2.53   2.72   11  194   13  69.6  68.0 1022.7 14.1  1.010 -99.9 -99.99 -9.99
2019/09/14 18:36 EDT    2.62   2.82   12  191   14  69.1  68.0 1022.7 14.1  1.010 -99.9 -99.99 -9.99
2019/09/14 18:42 EDT    2.71   2.91   14  189   16  68.9  68.0 1022.6 14.1  1.010 -99.9 -99.99 -9.99
2019/09/14 18:48 EDT    2.80   3.00   13  192   15  69.1  68.0 1022.6 14.1  1.010 -99.9 -99.99 -9.99
2019/09/14 18:54 EDT    2.88   3.10   13  198   15  69.3  68.0 1022.7 14.0  1.010 -99.9 -99.99 -9.99
2019/09/14 19:00 EDT    2.97   3.18   11  195   14  69.1  68.0 1022.7 14.0  1.010 -99.9 -99.99 -9.99
2019/09/14 19:06 EDT    3.05   3.27   11  194   13  69.1  68.0 1022.7 14.1  1.010 -99.9 -99.99 -9.99
2019/09/14 19:12 EDT    3.14   3.34   12  192   17  69.1  68.0 1022.6 14.1  1.010 -99.9 -99.99 -9.99
2019/09/14 19:18 EDT    3.22   3.44   11  192   14  68.9  68.0 1022.6 14.1  1.010 -99.9 -99.99 -9.99
2019/09/14 19:24 EDT    3.29   3.51   10  191   13  68.9  68.2 1022.7 14.1  1.010 -99.9 -99.99 -9.99
2019/09/14 19:30 EDT    3.37   3.57    9  198   11  68.7  68.0 1022.7 14.1  1.010 -99.9 -99.99 -9.99
2019/09/14 19:36 EDT    3.44   3.64    9  201   11  68.7  68.2 1022.7 14.1  1.010 -99.9 -99.99 -9.99
2019/09/14 19:42 EDT    3.51   3.72   10  207   12  69.3  68.0 1022.7 14.1  1.010 -99.9 -99.99 -9.99
2019/09/14 19:48 EDT    3.58   3.78   10  207   13  69.4  68.2 1022.6 14.1  1.010 -99.9 -99.99 -9.99
2019/09/14 19:54 EDT    3.64   3.80   11  198   12  69.3  68.2 1022.6 14.2  1.010 -99.9 -99.99 -9.99
2019/09/14 20:00 EDT    3.69   3.87   12  202   15  69.4  68.2 1022.6 14.3  1.010 -99.9 -99.99 -9.99
2019/09/14 20:06 EDT    3.75   3.91   11  203   14  69.4  68.0 1022.7 14.2  1.010 -99.9 -99.99 -9.99
2019/09/14 20:12 EDT    3.80   3.94   11  213   14  69.3  68.0 1022.7 14.3  1.010 -99.9 -99.99 -9.99
2019/09/14 20:18 EDT    3.84   4.00   13  208   15  68.9  68.0 1022.6 14.2  1.010 -99.9 -99.99 -9.99
2019/09/14 20:24 EDT    3.88   4.03   11  205   14  68.9  68.2 1022.7 14.2  1.010 -99.9 -99.99 -9.99
2019/09/14 20:30 EDT    3.91   4.03   10  202   12  69.1  68.2 1022.6 14.2  1.010 -99.9 -99.99 -9.99
2019/09/14 20:36 EDT    3.94   4.05   10  200   11  68.9  68.2 1022.6 14.3  1.010 -99.9 -99.99 -9.99
2019/09/14 20:42 EDT    3.96   4.10   10  203   12  68.9  68.2 1022.6 14.3  1.010 -99.9 -99.99 -9.99
2019/09/14 20:48 EDT    3.98   4.12   10  202   11  68.9  68.2 1022.6 14.2  1.010 -99.9 -99.99 -9.99
2019/09/14 20:54 EDT    3.99   4.09   10  202   11  68.9  68.2 1022.5 14.1  1.010 -99.9 -99.99 -9.99
2019/09/14 21:00 EDT    3.99   4.10   10  201   12  68.9  68.0 1022.5 14.1  1.010 -99.9 -99.99 -9.99
2019/09/14 21:06 EDT    3.99   4.13   10  197   12  68.9  68.0 1022.5 14.0  1.010 -99.9 -99.99 -9.99
2019/09/14 21:12 EDT    3.99   4.12   10  200   12  68.9  68.0 1022.5 14.2  1.010 -99.9 -99.99 -9.99
2019/09/14 21:18 EDT    3.97   4.09   10  206   12  69.1  68.0 1022.4 14.2  1.010 -99.9 -99.99 -9.99
2019/09/14 21:24 EDT    3.96   4.11   11  205   13  69.3  68.0 1022.5 14.2  1.010 -99.9 -99.99 -9.99
2019/09/14 21:30 EDT    3.93   4.09   10  212   13  69.3  68.0 1022.5 14.2  1.010 -99.9 -99.99 -9.99
2019/09/14 21:36 EDT    3.90   4.00   10  214   12  69.3  68.0 1022.4 14.3  1.010 -99.9 -99.99 -9.99
2019/09/14 21:42 EDT    3.87   3.97   11  213   12  69.3  68.0 1022.4 14.3  1.010 -99.9 -99.99 -9.99
2019/09/14 21:48 EDT    3.82   3.96   11  218   12  69.3  68.0 1022.5 14.2  1.010 -99.9 -99.99 -9.99
2019/09/14 21:54 EDT    3.78   3.92   10  221   11  69.3  68.0 1022.4 14.2  1.010 -99.9 -99.99 -9.99
2019/09/14 22:00 EDT    3.72   3.87   11  226   14  69.4  68.0 1022.4 14.2  1.010 -99.9 -99.99 -9.99
2019/09/14 22:06 EDT    3.66   3.82   11  225   13  69.3  68.0 1022.3 14.2  1.010 -99.9 -99.99 -9.99
2019/09/14 22:12 EDT    3.60   3.78   12  220   14  69.4  68.0 1022.3 14.2  1.010 -99.9 -99.99 -9.99
2019/09/14 22:18 EDT    3.53   3.69   12  221   15  69.4  68.0 1022.3 14.2  1.010 -99.9 -99.99 -9.99
2019/09/14 22:24 EDT    3.46   3.64   11  224   14  69.4  68.0 1022.3 14.2  1.010 -99.9 -99.99 -9.99
2019/09/14 22:30 EDT    3.38   3.58   11  214   13  69.4  68.0 1022.1 14.2  1.010 -99.9 -99.99 -9.99
2019/09/14 22:36 EDT    3.30   3.50   11  221   15  69.4  68.0 1022.1 14.2  1.010 -99.9 -99.99 -9.99
2019/09/14 22:42 EDT    3.21   3.39   11  220   14  69.4  68.0 1022.0 14.2  1.010 -99.9 -99.99 -9.99
2019/09/14 22:48 EDT    3.12   3.33   12  221   15  69.6  68.0 1021.9 14.3  1.010 -99.9 -99.99 -9.99
2019/09/14 22:54 EDT    3.02   3.22   12  217   14  69.6  68.0 1021.8 14.3  1.010 -99.9 -99.99 -9.99
2019/09/14 23:00 EDT    2.92   3.13   12  216   14  69.4  68.0 1021.9 14.2  1.010 -99.9 -99.99 -9.99
2019/09/14 23:06 EDT    2.82   3.02   13  218   15  69.3  68.0 1021.9 14.2  1.010 -99.9 -99.99 -9.99
2019/09/14 23:12 EDT    2.71   2.94   11  218   15  69.3  68.0 1021.7 14.2  1.010 -99.9 -99.99 -9.99
2019/09/14 23:18 EDT    2.61   2.84   11  218   14  69.1  68.0 1021.7 14.2  1.010 -99.9 -99.99 -9.99
2019/09/14 23:24 EDT    2.49   2.73   12  216   14  69.3  68.0 1021.7 14.1  1.010 -99.9 -99.99 -9.99
2019/09/14 23:30 EDT    2.38   2.65   13  220   16  68.9  68.0 1021.8 14.1  1.010 -99.9 -99.99 -9.99
2019/09/14 23:36 EDT    2.27   2.54   11  218   13  68.5  68.0 1021.7 14.0  1.010 -99.9 -99.99 -9.99
2019/09/14 23:42 EDT    2.15   2.43   10  215   13  68.4  68.0 1021.6 13.9  1.010 -99.9 -99.99 -9.99
2019/09/14 23:48 EDT    2.04   2.30   11  216   13  68.5  68.0 1021.5 13.9  1.010 -99.9 -99.99 -9.99
2019/09/14 23:54 EDT    1.92   2.18   11  215   13  68.5  68.0 1021.5 14.0  1.010 -99.9 -99.99 -9.99
2019/09/15 00:00 EDT    1.81   2.07   12  216   14  68.7  68.0 1021.5 14.0  1.010 -99.9 -99.99 -9.99
2019/09/15 00:06 EDT    1.69   1.96   13  216   15  68.5  68.0 1021.5 14.0  1.010 -99.9 -99.99 -9.99
2019/09/15 00:12 EDT    1.58   1.84   12  219   15  68.5  68.0 1021.5 14.0  1.010 -99.9 -99.99 -9.99
2019/09/15 00:18 EDT    1.47   1.74   12  218   13  68.5  68.0 1021.4 14.0  1.010 -99.9 -99.99 -9.99
2019/09/15 00:24 EDT    1.36   1.62   12  219   13  68.4  68.0 1021.3 14.0  1.010 -99.9 -99.99 -9.99
2019/09/15 00:30 EDT    1.25   1.51   11  219   14  68.4  68.0 1021.2 14.0  1.010 -99.9 -99.99 -9.99
2019/09/15 00:36 EDT    1.14   1.40   12  217   14  68.4  68.0 1021.2 14.0  1.010 -99.9 -99.99 -9.99
2019/09/15 00:42 EDT    1.04   1.32   13  222   15  68.5  68.0 1021.2 13.9  1.010 -99.9 -99.99 -9.99
2019/09/15 00:48 EDT    0.95   1.26   13  223   15  68.5  68.0 1021.3 14.0  1.010 -99.9 -99.99 -9.99
2019/09/15 00:54 EDT    0.85   1.14   14  226   18  68.7  68.0 1021.3 13.9  1.010 -99.9 -99.99 -9.99
2019/09/15 01:00 EDT    0.76   1.07   15  230   17  68.7  68.0 1021.3 13.9  1.010 -99.9 -99.99 -9.99
2019/09/15 01:06 EDT    0.68   1.01   13  228   15  68.7  68.0 1021.3 13.9  1.010 -99.9 -99.99 -9.99
2019/09/15 01:12 EDT    0.60   0.90   13  224   15  68.5  68.0 1021.3 13.9  1.010 -99.9 -99.99 -9.99
2019/09/15 01:18 EDT    0.52   0.80   12  220   15  68.5  68.0 1021.3 13.9  1.010 -99.9 -99.99 -9.99
2019/09/15 01:24 EDT    0.46   0.74   11  224   14  68.5  68.0 1021.3 13.9  1.010 -99.9 -99.99 -9.99
2019/09/15 01:30 EDT    0.39   0.68   11  221   12  68.5  68.0 1021.2 13.9  1.010 -99.9 -99.99 -9.99
2019/09/15 01:36 EDT    0.34   0.59    9  219   12  68.5  68.0 1021.1 13.9  1.010 -99.9 -99.99 -9.99
2019/09/15 01:42 EDT    0.28   0.50   10  223   11  68.5  68.0 1021.0 13.9  1.010 -99.9 -99.99 -9.99
2019/09/15 01:48 EDT    0.24   0.49   10  221   14  68.5  68.0 1021.0 13.9  1.010 -99.9 -99.99 -9.99
2019/09/15 01:54 EDT    0.20   0.47   10  224   12  68.5  68.0 1021.0 13.9  1.010 -99.9 -99.99 -9.99
2019/09/15 02:00 EDT    0.17   0.41   10  227   12  68.7  68.0 1020.9 14.0  1.010 -99.9 -99.99 -9.99
2019/09/15 02:06 EDT    0.14   0.38    9  230   12  68.5  68.0 1020.9 14.0  1.010 -99.9 -99.99 -9.99
2019/09/15 02:12 EDT    0.12   0.38    8  239   10  68.5  68.0 1020.9 13.9  1.010 -99.9 -99.99 -9.99
2019/09/15 02:18 EDT    0.10   0.38    8  233    9  68.7  68.0 1020.9 14.0  1.010 -99.9 -99.99 -9.99
2019/09/15 02:24 EDT    0.09   0.36    8  234   10  68.7  68.0 1020.9 14.0  1.010 -99.9 -99.99 -9.99
2019/09/15 02:30 EDT    0.09   0.34    8  228    9  68.7  68.0 1020.8 14.0  1.010 -99.9 -99.99 -9.99
2019/09/15 02:36 EDT    0.09   0.37    9  231   10  68.7  68.0 1020.8 14.0  1.010 -99.9 -99.99 -9.99
2019/09/15 02:42 EDT    0.10   0.39    6  236    9  68.7  68.0 1020.8 14.0  1.010 -99.9 -99.99 -9.99
2019/09/15 02:48 EDT    0.11   0.39    7  232    7  68.7  68.2 1020.8 13.9  1.010 -99.9 -99.99 -9.99
2019/09/15 02:54 EDT    0.12   0.42    7  229    8  68.7  68.2 1020.7 13.9  1.010 -99.9 -99.99 -9.99
2019/09/15 03:00 EDT    0.14   0.45    6  234    8  68.7  68.0 1020.7 14.0  1.010 -99.9 -99.99 -9.99
2019/09/15 03:06 EDT    0.17   0.46    6  235    8  68.7  68.0 1020.7 14.0  1.010 -99.9 -99.99 -9.99
2019/09/15 03:12 EDT    0.19   0.48    6  233    7  68.7  68.0 1020.6 14.0  1.010 -99.9 -99.99 -9.99
2019/09/15 03:18 EDT    0.23   0.52    5  239    7  68.7  68.0 1020.6 14.0  1.010 -99.9 -99.99 -9.99
2019/09/15 03:24 EDT    0.26   0.55    5  232    6  68.5  68.0 1020.5 14.0  1.010 -99.9 -99.99 -9.99
2019/09/15 03:30 EDT    0.30   0.58    6  225    6  68.5  68.0 1020.4 14.0  1.010 -99.9 -99.99 -9.99
2019/09/15 03:36 EDT    0.34   0.61    6  226    6  68.5  68.0 1020.4 14.0  1.010 -99.9 -99.99 -9.99
2019/09/15 03:42 EDT    0.38   0.67    6  221    7  68.5  68.0 1020.3 14.0  1.010 -99.9 -99.99 -9.99
2019/09/15 03:48 EDT    0.43   0.71    7  220    7  68.5  68.0 1020.3 13.9  1.010 -99.9 -99.99 -9.99
2019/09/15 03:54 EDT    0.47   0.72    5  220    7  68.5  68.0 1020.3 14.0  1.010 -99.9 -99.99 -9.99
2019/09/15 04:00 EDT    0.52   0.76    8  228    9  68.5  68.0 1020.3 14.0  1.010 -99.9 -99.99 -9.99
2019/09/15 04:06 EDT    0.58   0.82    7  233    8  68.5  68.0 1020.3 13.9  1.010 -99.9 -99.99 -9.99
2019/09/15 04:12 EDT    0.63   0.88    7  232    8  68.5  68.0 1020.3 13.9  1.010 -99.9 -99.99 -9.99
2019/09/15 04:18 EDT    0.68   0.89    6  239    8  68.4  68.0 1020.3 13.9  1.010 -99.9 -99.99 -9.99
2019/09/15 04:24 EDT    0.74   0.94    6  244    7  68.4  68.0 1020.3 13.4  1.009 -99.9 -99.99 -9.99
2019/09/15 04:30 EDT    0.80   1.01    6  248    6  68.4  68.0 1020.3 13.9  1.010 -99.9 -99.99 -9.99
2019/09/15 04:36 EDT    0.86   1.07    5  251    6  68.2  68.0 1020.3 13.9  1.010 -99.9 -99.99 -9.99
2019/09/15 04:42 EDT    0.92   1.12    5  251    6  68.2  68.0 1020.2 13.9  1.010 -99.9 -99.99 -9.99
2019/09/15 04:48 EDT    0.98   1.18    4  255    5  68.0  68.0 1020.3 13.9  1.010 -99.9 -99.99 -9.99
2019/09/15 04:54 EDT    1.05   1.27    4  257    5  68.0  68.0 1020.4 13.9  1.010 -99.9 -99.99 -9.99
2019/09/15 05:00 EDT    1.11   1.33    4  262    5  68.0  68.0 1020.5 14.0  1.010 -99.9 -99.99 -9.99
2019/09/15 05:06 EDT    1.18   1.37    4  257    5  67.8  68.0 1020.4 14.0  1.010 -99.9 -99.99 -9.99
2019/09/15 05:12 EDT    1.25   1.45    4  261    5  67.8  68.0 1020.5 14.0  1.010 -99.9 -99.99 -9.99
2019/09/15 05:18 EDT    1.32   1.53    4  258    5  67.8  68.0 1020.6 14.0  1.010 -99.9 -99.99 -9.99
2019/09/15 05:24 EDT    1.39   1.58    4  258    5  67.6  68.0 1020.7 14.0  1.010 -99.9 -99.99 -9.99
2019/09/15 05:30 EDT    1.47   1.62    3  268    5  67.6  68.0 1020.8 14.0  1.010 -99.9 -99.99 -9.99
2019/09/15 05:36 EDT    1.54   1.71    3  272    5  67.5  68.0 1020.9 14.0  1.010 -99.9 -99.99 -9.99
2019/09/15 05:42 EDT    1.62   1.80    3  281    5  67.5  68.0 1020.9 14.0  1.010 -99.9 -99.99 -9.99
2019/09/15 05:48 EDT    1.70   1.85    3  276    5  67.3  68.0 1020.9 14.0  1.010 -99.9 -99.99 -9.99
2019/09/15 05:54 EDT    1.78   1.89    3  270    4  67.3  68.0 1021.0 14.0  1.010 -99.9 -99.99 -9.99
2019/09/15 06:00 EDT    1.86   1.98    3  268    5  67.3  68.0 1021.0 14.0  1.010 -99.9 -99.99 -9.99
2019/09/15 06:06 EDT    1.94   2.08    3  264    5  67.1  68.0 1021.0 14.0  1.010 -99.9 -99.99 -9.99
2019/09/15 06:12 EDT    2.03   2.17    4  260    4  67.1  68.0 1021.0 14.0  1.010 -99.9 -99.99 -9.99
2019/09/15 06:18 EDT    2.11   2.25    3  262    4  67.1  68.0 1020.9 14.0  1.010 -99.9 -99.99 -9.99
2019/09/15 06:24 EDT    2.20   2.32    4  262    6  66.9  68.0 1020.8 14.0  1.010 -99.9 -99.99 -9.99
2019/09/15 06:30 EDT    2.29   2.42    5  264    6  66.9  68.0 1020.8 14.0  1.010 -99.9 -99.99 -9.99
2019/09/15 06:36 EDT    2.37   2.51    3  270    5  66.7  68.0 1020.8 14.0  1.010 -99.9 -99.99 -9.99
2019/09/15 06:42 EDT    2.46   2.60    4  268    4  66.7  68.0 1020.8 14.0  1.010 -99.9 -99.99 -9.99
2019/09/15 06:48 EDT    2.55   2.72    3  275    4  66.6  68.0 1020.9 14.0  1.010 -99.9 -99.99 -9.99
2019/09/15 06:54 EDT    2.64   2.80    4  268    6  66.7  68.0 1021.0 14.0  1.010 -99.9 -99.99 -9.99
2019/09/15 07:00 EDT    2.73   2.86    4  263    6  66.7  68.0 1021.0 13.9  1.010 -99.9 -99.99 -9.99
2019/09/15 07:06 EDT    2.82   2.95    5  261    5  66.7  68.0 1021.0 14.0  1.010 -99.9 -99.99 -9.99
2019/09/15 07:12 EDT    2.91   3.05    3  265    5  66.7  68.0 1021.0 14.0  1.010 -99.9 -99.99 -9.99
2019/09/15 07:18 EDT    2.99   3.14    3  264    4  66.7  68.0 1021.0 14.0  1.010 -99.9 -99.99 -9.99
2019/09/15 07:24 EDT    3.08   3.25    4  258    5  66.6  68.0 1020.9 14.0  1.010 -99.9 -99.99 -9.99
2019/09/15 07:30 EDT    3.16   3.32    4  266    5  66.7  68.0 1021.0 14.0  1.010 -99.9 -99.99 -9.99
2019/09/15 07:36 EDT    3.24   3.38    3  269    5  66.9  68.0 1021.0 14.0  1.010 -99.9 -99.99 -9.99
2019/09/15 07:42 EDT    3.32   3.42    4  277    6  67.1  68.0 1021.0 14.1  1.010 -99.9 -99.99 -9.99
2019/09/15 07:48 EDT    3.40   3.49    4  287    7  67.5  68.0 1021.0 14.1  1.010 -99.9 -99.99 -9.99
2019/09/15 07:54 EDT    3.47   3.57    4  278    7  67.6  68.0 1021.1 14.2  1.010 -99.9 -99.99 -9.99
2019/09/15 08:00 EDT    3.54   3.64    5  277    7  67.6  68.0 1021.1 14.1  1.010 -99.9 -99.99 -9.99
2019/09/15 08:06 EDT    3.60   3.73    4  284    6  67.8  68.0 1021.1 14.2  1.010 -99.9 -99.99 -9.99
2019/09/15 08:12 EDT    3.67   3.80    5  295    8  68.0  68.0 1021.1 14.2  1.010 -99.9 -99.99 -9.99
2019/09/15 08:18 EDT    3.72   3.85    5  297    8  68.5  68.0 1021.1 14.2  1.010 -99.9 -99.99 -9.99
2019/09/15 08:24 EDT    3.78   3.91    5  299    8  68.7  68.0 1021.0 14.1  1.010 -99.9 -99.99 -9.99
2019/09/15 08:30 EDT    3.83   3.96    4  308    7  69.1  68.0 1021.0 14.0  1.010 -99.9 -99.99 -9.99
2019/09/15 08:36 EDT    3.87   4.00    5  303    7  69.1  68.0 1021.0 13.9  1.010 -99.9 -99.99 -9.99
2019/09/15 08:42 EDT    3.91   4.04    4  320    7  69.3  68.0 1021.0 13.9  1.010 -99.9 -99.99 -9.99
2019/09/15 08:48 EDT    3.94   4.08    4  347    6  69.3  68.0 1021.0 13.9  1.010 -99.9 -99.99 -9.99
2019/09/15 08:54 EDT    3.97   4.14    3  322    6  69.6  68.0 1021.0 13.8  1.010 -99.9 -99.99 -9.99
2019/09/15 09:00 EDT    3.99   4.16    5  320    7  69.8  68.0 1021.0 13.8  1.010 -99.9 -99.99 -9.99
2019/09/15 09:06 EDT    4.01   4.17    6  325    7  69.6  68.2 1021.1 13.8  1.010 -99.9 -99.99 -9.99
2019/09/15 09:12 EDT    4.02   4.20    4  320    6  69.8  68.2 1021.1 13.8  1.010 -99.9 -99.99 -9.99
2019/09/15 09:18 EDT    4.03   4.21    5  335    7  70.0  68.0 1021.1 13.8  1.010 -99.9 -99.99 -9.99
2019/09/15 09:24 EDT    4.03   4.20    5  325    7  70.2  68.0 1021.1 13.9  1.010 -99.9 -99.99 -9.99
2019/09/15 09:30 EDT    4.02   4.19    4  307    8  70.3  68.2 1021.1 13.8  1.010 -99.9 -99.99 -9.99
2019/09/15 09:36 EDT    4.01   4.20    5  314    8  70.3  68.2 1021.1 14.0  1.010 -99.9 -99.99 -9.99
2019/09/15 09:42 EDT    3.99   4.17    6  326    8  70.2  68.2 1021.0 14.1  1.010 -99.9 -99.99 -9.99
2019/09/15 09:48 EDT    3.97   4.17    6  329    7  70.5  68.0 1021.1 14.2  1.010 -99.9 -99.99 -9.99
2019/09/15 09:54 EDT    3.94   4.12    4  326    7  70.9  68.0 1021.1 14.2  1.010 -99.9 -99.99 -9.99
2019/09/15 10:00 EDT    3.91   4.11    5  312    7  71.1  68.2 1021.0 14.2  1.010 -99.9 -99.99 -9.99
2019/09/15 10:06 EDT    3.87   4.06    4  324    6  71.4  68.0 1021.0 14.2  1.010 -99.9 -99.99 -9.99
2019/09/15 10:12 EDT    3.82   4.03    3  340    4  71.6  68.0 1020.9 14.2  1.010 -99.9 -99.99 -9.99
2019/09/15 10:18 EDT    3.77   3.97    4  293    7  72.0  68.2 1020.8 14.2  1.010 -99.9 -99.99 -9.99
2019/09/15 10:24 EDT    3.71   3.92    4  266    7  71.8  68.2 1020.6 14.1  1.010 -99.9 -99.99 -9.99
2019/09/15 10:30 EDT    3.65   3.89    4  261    6  71.8  68.2 1020.6 14.1  1.010 -99.9 -99.99 -9.99
2019/09/15 10:36 EDT    3.59   3.81    2  264    5  72.3  68.2 1020.6 14.1  1.010 -99.9 -99.99 -9.99
2019/09/15 10:42 EDT    3.52   3.76    3  298    4  72.3  68.2 1020.5 14.1  1.010 -99.9 -99.99 -9.99
2019/09/15 10:48 EDT    3.44   3.69    3  232    5  71.6  68.0 1020.5 14.2  1.010 -99.9 -99.99 -9.99
2019/09/15 10:54 EDT    3.36   3.64    1  164    3  72.5  68.0 1020.4 14.1  1.010 -99.9 -99.99 -9.99
2019/09/15 11:00 EDT    3.28   3.57    3   85    4  71.4  68.0 1020.4 14.1  1.010 -99.9 -99.99 -9.99
2019/09/15 11:06 EDT    3.19   3.49    3  100    4  70.7  68.0 1020.4 14.1  1.010 -99.9 -99.99 -9.99
2019/09/15 11:12 EDT    3.09   3.39    3  101    4  70.2  68.0 1020.4 14.1  1.010 -99.9 -99.99 -9.99
2019/09/15 11:18 EDT    3.00   3.27    2   68    4  70.7  68.0 1020.4 14.2  1.010 -99.9 -99.99 -9.99
2019/09/15 11:24 EDT    2.90   3.19    4   96    4  70.7  68.0 1020.3 14.2  1.010 -99.9 -99.99 -9.99
2019/09/15 11:30 EDT    2.80   3.08    3  103    4  70.9  68.0 1020.3 14.1  1.010 -99.9 -99.99 -9.99
2019/09/15 11:36 EDT    2.69   2.95    2   75    4  70.7  68.2 1020.2 14.1  1.010 -99.9 -99.99 -9.99
2019/09/15 11:42 EDT    2.59   2.84    1   94    3  72.1  68.2 1020.3 14.1  1.010 -99.9 -99.99 -9.99
2019/09/15 11:48 EDT    2.48   2.76    3  148    3  71.8  68.0 1020.2 14.1  1.010 -99.9 -99.99 -9.99
2019/09/15 11:54 EDT    2.37   2.64    3  160    5  72.1  68.0 1020.2 14.1  1.010 -99.9 -99.99 -9.99
2019/09/15 12:00 EDT    2.26   2.48    7  254    8  73.2  68.0 1020.1 14.1  1.010 -99.9 -99.99 -9.99
2019/09/15 12:06 EDT    2.14   2.38    5  261   10  74.1  68.0 1020.1 14.1  1.010 -99.9 -99.99 -9.99
2019/09/15 12:12 EDT    2.03   2.29    6  253    9  73.8  68.0 1020.0 14.1  1.010 -99.9 -99.99 -9.99
2019/09/15 12:18 EDT    1.92   2.15    6  251   10  74.1  68.0 1020.0 14.1  1.010 -99.9 -99.99 -9.99
2019/09/15 12:24 EDT    1.81   2.00    6  234    8  73.8  68.2 1019.9 14.1  1.010 -99.9 -99.99 -9.99
2019/09/15 12:30 EDT    1.70   1.89    7  257    9  74.3  68.5 1019.8 14.0  1.010 -99.9 -99.99 -9.99
2019/09/15 12:36 EDT    1.59   1.81    6  260   10  74.7  68.9 1019.7 14.0  1.010 -99.9 -99.99 -9.99
2019/09/15 12:42 EDT    1.48   1.68    9  252   11  74.3  69.1 1019.6 13.9  1.010 -99.9 -99.99 -9.99
2019/09/15 12:48 EDT    1.37   1.56    7  247   11  74.3  69.1 1019.5 14.0  1.010 -99.9 -99.99 -9.99
2019/09/15 12:54 EDT    1.27   1.48    5  238   10  74.7  69.3 1019.5 14.0  1.010 -99.9 -99.99 -9.99
2019/09/15 13:00 EDT    1.17   1.36    6  260    8  74.8  69.4 1019.4 13.9  1.009 -99.9 -99.99 -9.99
2019/09/15 13:06 EDT    1.07   1.24    5  247    7  74.8  69.1 1019.4 13.9  1.010 -99.9 -99.99 -9.99
2019/09/15 13:12 EDT    0.98   1.14    9  248   11  74.3  69.3 1019.3 13.9  1.009 -99.9 -99.99 -9.99
2019/09/15 13:18 EDT    0.89   1.08    8  245   12  74.5  69.3 1019.3 13.9  1.009 -99.9 -99.99 -9.99
2019/09/15 13:24 EDT    0.80   1.00    9  255   12  75.4  69.3 1019.2 13.9  1.009 -99.9 -99.99 -9.99
2019/09/15 13:30 EDT    0.72   0.92    9  255   11  74.7  69.3 1019.0 13.8  1.009 -99.9 -99.99 -9.99
2019/09/15 13:36 EDT    0.64   0.83    4  251    8  74.8  69.3 1018.9 13.8  1.009 -99.9 -99.99 -9.99
2019/09/15 13:42 EDT    0.57   0.76    8  242   12  74.7  69.1 1018.7 13.9  1.009 -99.9 -99.99 -9.99
2019/09/15 13:48 EDT    0.51   0.67    5  267    8  76.1  69.1 1018.7 13.9  1.010 -99.9 -99.99 -9.99
2019/09/15 13:54 EDT    0.45   0.59    4  251   11  75.4  69.1 1018.6 13.9  1.009 -99.9 -99.99 -9.99
2019/09/15 14:00 EDT    0.39   0.53    9  255   13  75.6  69.3 1018.6 13.9  1.009 -99.9 -99.99 -9.99
2019/09/15 14:06 EDT    0.35   0.48   10  255   13  75.4  69.3 1018.5 13.8  1.009 -99.9 -99.99 -9.99
2019/09/15 14:12 EDT    0.30   0.46    9  252   13  75.2  69.1 1018.4 13.9  1.009 -99.9 -99.99 -9.99
2019/09/15 14:18 EDT    0.27   0.44   10  262   14  76.1  69.1 1018.4 13.9  1.009 -99.9 -99.99 -9.99
2019/09/15 14:24 EDT    0.24   0.43    7  277   10  77.4  69.1 1018.4 13.9  1.009 -99.9 -99.99 -9.99
2019/09/15 14:30 EDT    0.21   0.42    8  259   12  76.5  69.1 1018.3 13.8  1.009 -99.9 -99.99 -9.99
2019/09/15 14:36 EDT    0.19   0.40    7  262   11  76.6  69.1 1018.2 13.8  1.009 -99.9 -99.99 -9.99
2019/09/15 14:42 EDT    0.18   0.42    4  291    9  77.7  68.9 1018.2 13.8  1.009 -99.9 -99.99 -9.99
2019/09/15 14:48 EDT    0.17   0.45    6  262   11  76.6  69.1 1018.2 13.8  1.009 -99.9 -99.99 -9.99
2019/09/15 14:54 EDT    0.17   0.46    6  271    9  77.4  69.1 1018.1 13.7  1.009 -99.9 -99.99 -9.99
2019/09/15 15:00 EDT    0.17   0.47    7  276   14  77.7  68.9 1018.1 13.8  1.009 -99.9 -99.99 -9.99
2019/09/15 15:06 EDT    0.18   0.47   10  269   15  77.9  68.9 1017.9 13.7  1.009 -99.9 -99.99 -9.99
2019/09/15 15:12 EDT    0.19   0.48    8  274   10  78.3  68.9 1017.9 13.9  1.010 -99.9 -99.99 -9.99
2019/09/15 15:18 EDT    0.21   0.52    7  270   13  77.5  68.9 1017.7 13.9  1.010 -99.9 -99.99 -9.99
2019/09/15 15:24 EDT    0.23   0.55   10  269   14  77.9  68.9 1017.8 13.9  1.010 -99.9 -99.99 -9.99
2019/09/15 15:30 EDT    0.25   0.56    8  268   13  77.7  68.7 1017.8 13.9  1.010 -99.9 -99.99 -9.99
2019/09/15 15:36 EDT    0.28   0.60    7  278   11  78.3  68.9 1017.7 13.9  1.010 -99.9 -99.99 -9.99
2019/09/15 15:42 EDT    0.31   0.64    8  274   11  77.9  68.9 1017.7 13.9  1.010 -99.9 -99.99 -9.99
2019/09/15 15:48 EDT    0.35   0.70    4  278    9  78.4  68.9 1017.5 13.9  1.010 -99.9 -99.99 -9.99
2019/09/15 15:54 EDT    0.39   0.72    9  259   11  76.5  68.9 1017.6 13.9  1.010 -99.9 -99.99 -9.99
2019/09/15 16:00 EDT    0.43   0.77    8  253   11  76.1  68.9 1017.6 13.9  1.010 -99.9 -99.99 -9.99
2019/09/15 16:06 EDT    0.47   0.85    6  249    9  76.6  69.1 1017.6 13.8  1.009 -99.9 -99.99 -9.99
2019/09/15 16:12 EDT    0.51   0.87    8  254   11  76.5  69.3 1017.5 13.8  1.009 -99.9 -99.99 -9.99
2019/09/15 16:18 EDT    0.56   0.91    9  259   12  77.5  69.3 1017.5 13.8  1.009 -99.9 -99.99 -9.99
2019/09/15 16:24 EDT    0.61   0.96    8  256   10  76.8  69.3 1017.6 13.9  1.009 -99.9 -99.99 -9.99
2019/09/15 16:30 EDT    0.66   1.03    7  285   10  78.4  69.6 1017.6 13.8  1.009 -99.9 -99.99 -9.99
2019/09/15 16:36 EDT    0.72   1.09    6  277    9  78.4  69.3 1017.7 13.9  1.009 -99.9 -99.99 -9.99
2019/09/15 16:42 EDT    0.77   1.14    7  262    9  77.9  69.4 1017.7 13.8  1.009 -99.9 -99.99 -9.99
2019/09/15 16:48 EDT    0.83   1.21    8  263   11  77.7  69.4 1017.7 13.8  1.009 -99.9 -99.99 -9.99
2019/09/15 16:54 EDT    0.89   1.29    9  260   12  76.8  69.3 1017.7 13.8  1.009 -99.9 -99.99 -9.99
2019/09/15 17:00 EDT    0.94   1.34    8  265   12  77.7  69.3 1017.6 13.8  1.009 -99.9 -99.99 -9.99
2019/09/15 17:06 EDT    1.01   1.42    7  261   12  77.4  69.3 1017.6 13.8  1.009 -99.9 -99.99 -9.99
2019/09/15 17:12 EDT    1.07   1.52    7  261   10  77.0  69.3 1017.6 13.8  1.009 -99.9 -99.99 -9.99
2019/09/15 17:18 EDT    1.13   1.59    7  254   10  76.5  69.3 1017.6 13.8  1.009 -99.9 -99.99 -9.99
2019/09/15 17:24 EDT    1.20   1.64    8  254   10  75.7  69.4 1017.6 13.8  1.009 -99.9 -99.99 -9.99
2019/09/15 17:30 EDT    1.26   1.69    7  257    9  75.9  69.4 1017.6 13.8  1.009 -99.9 -99.99 -9.99
2019/09/15 17:36 EDT    1.33   1.76    5  271   10  77.4  69.4 1017.6 13.8  1.009 -99.9 -99.99 -9.99
2019/09/15 17:42 EDT    1.40   1.82    6  263    8  76.8  69.4 1017.6 13.8  1.009 -99.9 -99.99 -9.99
2019/09/15 17:48 EDT    1.47   1.91    5  263    9  76.5  69.4 1017.7 13.8  1.009 -99.9 -99.99 -9.99
2019/09/15 17:54 EDT    1.54   2.00    6  274    8  76.5  69.4 1017.8 13.8  1.009 -99.9 -99.99 -9.99
2019/09/15 18:00 EDT    1.62   2.02    3  272    8  76.3  69.4 1017.8 13.8  1.009 -99.9 -99.99 -9.99
2019/09/15 18:06 EDT    1.69   2.09    5  248    5  75.0  69.4 1017.9 13.8  1.009 -99.9 -99.99 -9.99
2019/09/15 18:12 EDT    1.77   2.14    7  234    7  73.6  69.4 1017.9 13.8  1.009 -99.9 -99.99 -9.99
2019/09/15 18:18 EDT    1.85   2.22    6  237    8  73.0  69.4 1018.0 13.8  1.009 -99.9 -99.99 -9.99
2019/09/15 18:24 EDT    1.93   2.30    6  256   10  72.9  69.4 1018.1 13.8  1.009 -99.9 -99.99 -9.99
2019/09/15 18:30 EDT    2.01   2.38    8  253    9  72.7  69.4 1018.2 13.8  1.009 -99.9 -99.99 -9.99
2019/09/15 18:36 EDT    2.09   2.45    7  250    9  72.5  69.3 1018.1 13.9  1.009 -99.9 -99.99 -9.99
2019/09/15 18:42 EDT    2.18   2.53    7  246    8  72.0  69.3 1018.1 13.8  1.009 -99.9 -99.99 -9.99
2019/09/15 18:48 EDT    2.26   2.62    7  252    8  72.0  69.3 1018.1 13.8  1.009 -99.9 -99.99 -9.99
2019/09/15 18:54 EDT    2.34   2.70    6  239   10  72.0  69.1 1018.0 13.7  1.009 -99.9 -99.99 -9.99
2019/09/15 19:00 EDT    2.43   2.81    8  231    8  71.6  69.3 1017.9 13.8  1.009 -99.9 -99.99 -9.99
2019/09/15 19:06 EDT    2.51   2.88    7  227    8  71.2  69.3 1017.8 13.8  1.009 -99.9 -99.99 -9.99
2019/09/15 19:12 EDT    2.60   2.94    6  223    7  70.9  69.3 1017.8 13.8  1.009 -99.9 -99.99 -9.99
2019/09/15 19:18 EDT    2.68   3.04    6  224    6  70.7  69.3 1017.8 13.9  1.009 -99.9 -99.99 -9.99
2019/09/15 19:24 EDT    2.77   3.11    5  234    6  70.5  69.3 1017.9 13.9  1.009 -99.9 -99.99 -9.99
2019/09/15 19:30 EDT    2.85   3.16    5  228    5  70.3  69.3 1017.8 13.8  1.009 -99.9 -99.99 -9.99
2019/09/15 19:36 EDT    2.94   3.24    6  229    6  69.8  69.3 1017.9 13.8  1.009 -99.9 -99.99 -9.99
2019/09/15 19:42 EDT    3.02   3.31    6  228    6  69.8  69.3 1017.9 13.8  1.009 -99.9 -99.99 -9.99
2019/09/15 19:48 EDT    3.10   3.35    5  234    6  69.8  69.3 1017.9 13.8  1.009 -99.9 -99.99 -9.99
2019/09/15 19:54 EDT    3.17   3.39    5  232    6  69.4  69.3 1017.8 13.8  1.009 -99.9 -99.99 -9.99
2019/09/15 20:00 EDT    3.25   3.48    4  244    6  69.4  69.3 1018.0 13.8  1.009 -99.9 -99.99 -9.99
2019/09/15 20:06 EDT    3.32   3.55    4  245    5  69.4  69.3 1018.0 13.8  1.009 -99.9 -99.99 -9.99
2019/09/15 20:12 EDT    3.39   3.60    4  229    5  69.3  69.3 1017.8 13.8  1.009 -99.9 -99.99 -9.99
2019/09/15 20:18 EDT    3.46   3.66    5  231    5  69.3  69.3 1017.8 13.9  1.009 -99.9 -99.99 -9.99
2019/09/15 20:24 EDT    3.52   3.71    6  233    6  69.1  69.1 1017.7 13.9  1.010 -99.9 -99.99 -9.99
2019/09/15 20:30 EDT    3.58   3.75    6  228    6  68.7  69.1 1017.7 13.9  1.010 -99.9 -99.99 -9.99
2019/09/15 20:36 EDT    3.63   3.81    6  222    6  68.5  68.7 1017.6 13.9  1.010 -99.9 -99.99 -9.99
2019/09/15 20:42 EDT    3.68   3.87    5  235    6  68.5  68.7 1017.8 14.0  1.010 -99.9 -99.99 -9.99
2019/09/15 20:48 EDT    3.73   3.92    6  245    7  68.7  68.9 1017.8 14.0  1.010 -99.9 -99.99 -9.99
2019/09/15 20:54 EDT    3.77   3.93    6  253    8  68.4  68.9 1017.8 14.0  1.010 -99.9 -99.99 -9.99
2019/09/15 21:00 EDT    3.80   3.98    6  255    6  68.2  68.9 1017.8 14.1  1.010 -99.9 -99.99 -9.99
2019/09/15 21:06 EDT    3.83   4.04    5  256    6  68.4  68.9 1017.7 14.1  1.010 -99.9 -99.99 -9.99
2019/09/15 21:12 EDT    3.86   4.06    5  254    6  68.2  68.7 1017.8 14.2  1.010 -99.9 -99.99 -9.99
2019/09/15 21:18 EDT    3.87   4.09    5  256    7  68.4  68.7 1017.8 14.2  1.010 -99.9 -99.99 -9.99
2019/09/15 21:24 EDT    3.89   4.10    6  259    6  68.2  68.7 1017.8 14.2  1.010 -99.9 -99.99 -9.99
2019/09/15 21:30 EDT    3.90   4.10    5  257    6  68.2  68.7 1017.8 14.2  1.010 -99.9 -99.99 -9.99
2019/09/15 21:36 EDT    3.90   4.09    5  253    6  68.2  68.7 1017.7 14.1  1.010 -99.9 -99.99 -9.99
2019/09/15 21:42 EDT    3.89   4.08    6  252    7  68.0  68.7 1017.6 14.1  1.010 -99.9 -99.99 -9.99
2019/09/15 21:48 EDT    3.88   4.09    7  255    8  67.8  68.7 1017.6 14.1  1.010 -99.9 -99.99 -9.99
2019/09/15 21:54 EDT    3.87   4.08    7  254    8  67.8  68.7 1017.5 14.0  1.010 -99.9 -99.99 -9.99
2019/09/15 22:00 EDT    3.85   4.06    6  258    8  67.8  68.7 1017.5 13.9  1.010 -99.9 -99.99 -9.99
2019/09/15 22:06 EDT    3.82   4.02    5  257    7  67.5  68.7 1017.5 13.9  1.010 -99.9 -99.99 -9.99
2019/09/15 22:12 EDT    3.79   3.99    6  258    7  67.5  68.5 1017.5 14.0  1.010 -99.9 -99.99 -9.99
2019/09/15 22:18 EDT    3.75   3.99    4  259    6  67.6  68.4 1017.5 14.1  1.010 -99.9 -99.99 -9.99
2019/09/15 22:24 EDT    3.71   3.95    3  260    5  67.8  68.4 1017.5 14.0  1.010 -99.9 -99.99 -9.99
2019/09/15 22:30 EDT    3.66   3.94    4  247    5  67.8  68.4 1017.5 14.0  1.010 -99.9 -99.99 -9.99
2019/09/15 22:36 EDT    3.61   3.91    4  244    4  67.5  68.4 1017.3 14.0  1.010 -99.9 -99.99 -9.99
2019/09/15 22:42 EDT    3.55   3.88    2  262    4  67.5  68.2 1017.3 14.0  1.010 -99.9 -99.99 -9.99
2019/09/15 22:48 EDT    3.48   3.82    2  261    3  67.3  68.2 1017.4 14.0  1.010 -99.9 -99.99 -9.99
2019/09/15 22:54 EDT    3.42   3.78    3  250    3  67.5  68.2 1017.4 13.9  1.010 -99.9 -99.99 -9.99
2019/09/15 23:00 EDT    3.34   3.71    4  244    4  67.3  68.2 1017.4 13.8  1.010 -99.9 -99.99 -9.99
2019/09/15 23:06 EDT    3.27   3.64    4  254    5  66.9  68.2 1017.4 13.9  1.010 -99.9 -99.99 -9.99
2019/09/15 23:12 EDT    3.18   3.57    4  257    5  66.7  68.0 1017.5 14.0  1.010 -99.9 -99.99 -9.99
2019/09/15 23:18 EDT    3.10   3.49    3  255    4  66.7  68.0 1017.4 14.1  1.010 -99.9 -99.99 -9.99
2019/09/15 23:24 EDT    3.01   3.42    4  237    5  66.6  68.2 1017.4 14.0  1.010 -99.9 -99.99 -9.99
2019/09/15 23:30 EDT    2.92   3.34    4  247    6  66.6  68.2 1017.5 14.1  1.010 -99.9 -99.99 -9.99
2019/09/15 23:36 EDT    2.82   3.25    4  234    5  66.4  68.0 1017.5 14.1  1.010 -99.9 -99.99 -9.99
2019/09/15 23:42 EDT    2.72   3.14    5  232    5  66.2  68.0 1017.5 14.2  1.010 -99.9 -99.99 -9.99
2019/09/15 23:48 EDT    2.62   3.03    5  225    6  66.0  67.8 1017.5 14.2  1.010 -99.9 -99.99 -9.99
2019/09/15 23:54 EDT    2.52   2.94    5  236    6  65.8  67.8 1017.5 14.2  1.010 -99.9 -99.99 -9.99
2019/09/16 00:00 EDT    2.41   2.83    4  237    5  66.2  67.8 1017.5 14.2  1.010 -99.9 -99.99 -9.99
2019/09/16 00:06 EDT    2.30   2.70    5  239    6  65.8  67.8 1017.4 14.1  1.010 -99.9 -99.99 -9.99
2019/09/16 00:12 EDT    2.20   2.58    5  242    6  66.0  67.8 1017.4 14.1  1.010 -99.9 -99.99 -9.99
2019/09/16 00:18 EDT    2.09   2.49    5  238    6  66.0  67.8 1017.4 14.0  1.010 -99.9 -99.99 -9.99
2019/09/16 00:24 EDT    1.98   2.39    5  233    6  65.7  67.8 1017.4 14.0  1.010 -99.9 -99.99 -9.99
2019/09/16 00:30 EDT    1.86   2.25    5  234    5  65.3  68.2 1017.5 14.0  1.010 -99.9 -99.99 -9.99
2019/09/16 00:36 EDT    1.75   2.16    4  237    5  65.3  68.2 1017.5 14.0  1.010 -99.9 -99.99 -9.99
2019/09/16 00:42 EDT    1.64   2.07    4  241    5  65.1  68.2 1017.5 13.9  1.010 -99.9 -99.99 -9.99
2019/09/16 00:48 EDT    1.54   1.95    5  236    5  64.8  68.0 1017.5 13.9  1.010 -99.9 -99.99 -9.99
2019/09/16 00:54 EDT    1.43   1.82    5  235    5  64.9  68.0 1017.4 14.0  1.010 -99.9 -99.99 -9.99
2019/09/16 01:00 EDT    1.32   1.72    4  233    5  65.1  67.6 1017.4 14.0  1.010 -99.9 -99.99 -9.99
2019/09/16 01:06 EDT    1.22   1.60    5  232    5  64.9  67.6 1017.3 14.0  1.010 -99.9 -99.99 -9.99
2019/09/16 01:12 EDT    1.12   1.48    5  234    6  64.9  68.2 1017.3 14.0  1.010 -99.9 -99.99 -9.99
2019/09/16 01:18 EDT    1.02   1.38    5  241    6  65.1  68.2 1017.3 14.0  1.010 -99.9 -99.99 -9.99
2019/09/16 01:24 EDT    0.93   1.29    6  245    7  64.9  68.2 1017.3 13.9  1.010 -99.9 -99.99 -9.99
2019/09/16 01:30 EDT    0.84   1.18    7  251    7  64.9  68.2 1017.2 13.9  1.010 -99.9 -99.99 -9.99
2019/09/16 01:36 EDT    0.75   1.07    6  245    7  64.8  68.2 1017.1 13.9  1.010 -99.9 -99.99 -9.99
2019/09/16 01:42 EDT    0.67   0.98    6  235    7  64.9  68.2 1017.0 13.8  1.010 -99.9 -99.99 -9.99
2019/09/16 01:48 EDT    0.59   0.89    6  243    7  65.1  68.2 1017.0 13.7  1.009 -99.9 -99.99 -9.99
2019/09/16 01:54 EDT    0.52   0.81    5  260    7  65.1  68.4 1017.1 13.8  1.010 -99.9 -99.99 -9.99
2019/09/16 02:00 EDT    0.45   0.73    5  252    6  64.8  68.4 1017.1 13.7  1.009 -99.9 -99.99 -9.99
2019/09/16 02:06 EDT    0.39   0.65    6  244    7  64.6  68.4 1017.0 13.8  1.010 -99.9 -99.99 -9.99
2019/09/16 02:12 EDT    0.33   0.59    6  247    7  64.8  68.4 1017.1 13.8  1.010 -99.9 -99.99 -9.99
2019/09/16 02:18 EDT    0.28   0.52    7  250    8  65.1  68.4 1017.0 13.8  1.010 -99.9 -99.99 -9.99
2019/09/16 02:24 EDT    0.24   0.50    3  304    7  64.8  68.4 1017.2 13.8  1.010 -99.9 -99.99 -9.99
2019/09/16 02:30 EDT    0.20   0.47    3  356    5  64.6  68.4 1017.2 13.8  1.010 -99.9 -99.99 -9.99
2019/09/16 02:36 EDT    0.17   0.40    5    8    6  64.6  68.4 1017.2 13.8  1.010 -99.9 -99.99 -9.99
2019/09/16 02:42 EDT    0.14   0.38    3   18    6  64.9  68.4 1017.2 13.8  1.010 -99.9 -99.99 -9.99
2019/09/16 02:48 EDT    0.12   0.37    3  359    5  65.3  68.4 1017.3 13.8  1.010 -99.9 -99.99 -9.99
2019/09/16 02:54 EDT    0.11   0.37    4    6    5  65.3  68.4 1017.3 13.8  1.010 -99.9 -99.99 -9.99
2019/09/16 03:00 EDT    0.10   0.37    3  337    4  65.1  68.4 1017.4 13.8  1.010 -99.9 -99.99 -9.99
2019/09/16 03:06 EDT    0.09   0.38    1  325    2  65.1  68.4 1017.4 13.8  1.010 -99.9 -99.99 -9.99
2019/09/16 03:12 EDT    0.10   0.39    1  347    2  65.1  68.4 1017.3 13.7  1.009 -99.9 -99.99 -9.99
2019/09/16 03:18 EDT    0.11   0.40    0   18    2  65.5  68.4 1017.2 13.8  1.009 -99.9 -99.99 -9.99
2019/09/16 03:24 EDT    0.12   0.40    1  333    2  65.5  68.2 1017.3 13.8  1.010 -99.9 -99.99 -9.99
2019/09/16 03:30 EDT    0.14   0.41    1  322    2  65.5  68.4 1017.2 13.8  1.009 -99.9 -99.99 -9.99
2019/09/16 03:36 EDT    0.16   0.44    1  288    2  65.7  68.4 1017.2 13.8  1.009 -99.9 -99.99 -9.99
2019/09/16 03:42 EDT    0.19   0.49    4  277    5  65.7  68.4 1017.2 13.8  1.010 -99.9 -99.99 -9.99
2019/09/16 03:48 EDT    0.22   0.50    2  281    5  65.5  68.4 1017.2 13.8  1.010 -99.9 -99.99 -9.99
2019/09/16 03:54 EDT    0.26   0.53    3  276    5  65.7  68.4 1017.2 13.8  1.009 -99.9 -99.99 -9.99
2019/09/16 04:00 EDT    0.29   0.55    1  292    4  65.7  68.4 1017.2 13.8  1.010 -99.9 -99.99 -9.99
2019/09/16 04:06 EDT    0.34   0.57    3  269    4  65.8  68.4 1017.2 13.8  1.009 -99.9 -99.99 -9.99
2019/09/16 04:12 EDT    0.38   0.61    3  284    4  65.7  68.4 1017.3 13.8  1.010 -99.9 -99.99 -9.99
2019/09/16 04:18 EDT    0.43   0.64    4  290    7  66.0  68.4 1017.2 13.8  1.010 -99.9 -99.99 -9.99
2019/09/16 04:24 EDT    0.48   0.70    4  298    8  66.6  68.4 1017.2 13.8  1.010 -99.9 -99.99 -9.99
2019/09/16 04:30 EDT    0.53   0.75    4  309    7  66.6  68.4 1017.1 13.8  1.010 -99.9 -99.99 -9.99
2019/09/16 04:36 EDT    0.59   0.77    5  312    8  66.4  68.4 1017.1 13.8  1.010 -99.9 -99.99 -9.99
2019/09/16 04:42 EDT    0.65   0.82    5  322    8  66.2  68.4 1017.0 13.8  1.010 -99.9 -99.99 -9.99
2019/09/16 04:48 EDT    0.71   0.88    5  328    7  66.4  68.4 1017.1 13.8  1.010 -99.9 -99.99 -9.99
2019/09/16 04:54 EDT    0.77   0.97    5  327    8  66.2  68.4 1017.2 13.8  1.010 -99.9 -99.99 -9.99
2019/09/16 05:00 EDT    0.83   1.07    4  350    7  66.2  68.4 1017.2 13.8  1.010 -99.9 -99.99 -9.99
2019/09/16 05:06 EDT    0.89   1.14    4  326    6  66.0  68.4 1017.1 13.8  1.010 -99.9 -99.99 -9.99
2019/09/16 05:12 EDT    0.96   1.18    6  324    7  66.0  68.4 1017.2 13.8  1.010 -99.9 -99.99 -9.99
2019/09/16 05:18 EDT    1.02   1.22    6  323    8  66.4  68.4 1017.3 13.8  1.009 -99.9 -99.99 -9.99
2019/09/16 05:24 EDT    1.09   1.29    5  323    9  66.6  68.4 1017.3 13.8  1.009 -99.9 -99.99 -9.99
2019/09/16 05:30 EDT    1.16   1.38    6  321    8  66.4  68.2 1017.3 13.8  1.010 -99.9 -99.99 -9.99
2019/09/16 05:36 EDT    1.22   1.44    5  320    8  66.2  68.2 1017.4 13.8  1.010 -99.9 -99.99 -9.99
2019/09/16 05:42 EDT    1.29   1.52    5  321    8  66.2  68.4 1017.4 13.8  1.010 -99.9 -99.99 -9.99
2019/09/16 05:48 EDT    1.37   1.58    5  327    7  66.2  68.2 1017.5 13.8  1.010 -99.9 -99.99 -9.99
2019/09/16 05:54 EDT    1.44   1.64    5  333    7  65.8  68.4 1017.6 13.8  1.010 -99.9 -99.99 -9.99
2019/09/16 06:00 EDT    1.51   1.73    5  328    7  65.8  68.2 1017.7 13.8  1.010 -99.9 -99.99 -9.99
2019/09/16 06:06 EDT    1.58   1.80    6  325    8  65.7  68.4 1017.7 13.8  1.010 -99.9 -99.99 -9.99
2019/09/16 06:12 EDT    1.66   1.87    6  327    7  65.7  68.2 1017.8 13.8  1.010 -99.9 -99.99 -9.99
2019/09/16 06:18 EDT    1.74   1.93    5  326    7  65.7  68.4 1017.8 13.8  1.010 -99.9 -99.99 -9.99
2019/09/16 06:24 EDT    1.81   2.02    4  340    7  65.8  68.4 1017.7 13.8  1.010 -99.9 -99.99 -9.99
2019/09/16 06:30 EDT    1.89   2.10    4  337    6  66.0  68.4 1017.8 13.8  1.010 -99.9 -99.99 -9.99
2019/09/16 06:36 EDT    1.97 -99.99 -999 -999 -999 -99.9 -99.9 -999.9 -9.9 -9.999 -99.9 -99.99 -9.99
2019/09/16 06:42 EDT    2.05 -99.99 -999 -999 -999 -99.9 -99.9 -999.9 -9.9 -9.999 -99.9 -99.99 -9.99
2019/09/16 06:48 EDT    2.13 -99.99 -999 -999 -999 -99.9 -99.9 -999.9 -9.9 -9.999 -99.9 -99.99 -9.99